Observation data for Colorado City on 08/06/2020      Previous  Date       Current Mesonet Observations  Soil Data  Daily Summary Page  Observations in Plain Language
KCO2 060500Z 18007KT 30/13 A2994 RMK A01 T02960127  RH  036%=      5-min Rain = 0
KCO2 060501Z 18007KT 30/13 A2994 RMK A01 T02950127  RH  036%=      5-min Rain = 0
KCO2 060502Z 18007KT 30/13 A2995 RMK A01 T02950128  RH  036%=      5-min Rain = 0
KCO2 060503Z 18007KT 29/13 A2995 RMK A01 T02940128  RH  036%=      5-min Rain = 0
KCO2 060504Z 18007KT 29/13 A2995 RMK A01 T02940128  RH  036%=      5-min Rain = 0
KCO2 060505Z 18007KT 29/13 A2995 RMK A01 T02930128  RH  036%=      5-min Rain = 0
KCO2 060506Z 18007KT 29/13 A2995 RMK A01 T02920128  RH  036%=      5-min Rain = 0
KCO2 060507Z 18007KT 29/13 A2995 RMK A01 T02920128  RH  036%=      5-min Rain = 0
KCO2 060508Z 18007KT 29/13 A2995 RMK A01 T02920128  RH  036%=      5-min Rain = 0
KCO2 060509Z 18007KT 29/13 A2995 RMK A01 T02920128  RH  037%=      5-min Rain = 0
KCO2 060510Z 18008KT 29/13 A2995 RMK A01 T02910128  RH  037%=      5-min Rain = 0
KCO2 060511Z 18008KT 29/13 A2995 RMK A01 T02920128  RH  037%=      5-min Rain = 0
KCO2 060512Z 18008KT 29/13 A2995 RMK A01 T02930129  RH  036%=      5-min Rain = 0
KCO2 060513Z 18008KT 29/13 A2995 RMK A01 T02930129  RH  036%=      5-min Rain = 0
KCO2 060514Z 18007KT 29/13 A2995 RMK A01 T02930129  RH  036%=      5-min Rain = 0
KCO2 060515Z 18007KT 29/13 A2995 RMK A01 T02930129  RH  036%=      5-min Rain = 0
KCO2 060516Z 18007KT 29/13 A2995 RMK A01 T02930129  RH  036%=      5-min Rain = 0
KCO2 060517Z 18007KT 29/13 A2995 RMK A01 T02930129  RH  037%=      5-min Rain = 0
KCO2 060518Z 18007KT 29/13 A2995 RMK A01 T02930130  RH  037%=      5-min Rain = 0
KCO2 060519Z 18008KT 29/13 A2995 RMK A01 T02930130  RH  037%=      5-min Rain = 0
KCO2 060520Z 17007KT 29/13 A2995 RMK A01 T02930130  RH  037%=      5-min Rain = 0
KCO2 060521Z 18007KT 29/13 A2995 RMK A01 T02930131  RH  037%=      5-min Rain = 0
KCO2 060522Z 17007KT 29/13 A2995 RMK A01 T02930131  RH  037%=      5-min Rain = 0
KCO2 060523Z 17008KT 29/13 A2995 RMK A01 T02930131  RH  037%=      5-min Rain = 0
KCO2 060524Z 17007KT 29/13 A2995 RMK A01 T02930131  RH  037%=      5-min Rain = 0
KCO2 060525Z 18007KT 29/13 A2995 RMK A01 T02930131  RH  037%=      5-min Rain = 0
KCO2 060526Z 17007KT 29/13 A2995 RMK A01 T02920131  RH  037%=      5-min Rain = 0
KCO2 060527Z 17007KT 29/13 A2995 RMK A01 T02920131  RH  037%=      5-min Rain = 0
KCO2 060528Z 18008KT 29/13 A2995 RMK A01 T02910131  RH  037%=      5-min Rain = 0
KCO2 060529Z 18007KT 29/13 A2995 RMK A01 T02910131  RH  037%=      5-min Rain = 0
KCO2 060530Z 18007KT 29/13 A2995 RMK A01 T02910131  RH  038%=      5-min Rain = 0
KCO2 060531Z 17008KT 29/13 A2995 RMK A01 T02900131  RH  038%=      5-min Rain = 0
KCO2 060532Z 18007KT 29/13 A2995 RMK A01 T02910131  RH  038%=      5-min Rain = 0
KCO2 060533Z 18008KT 29/13 A2995 RMK A01 T02900131  RH  038%=      5-min Rain = 0
KCO2 060534Z 17007KT 29/13 A2995 RMK A01 T02900131  RH  038%=      5-min Rain = 0
KCO2 060535Z 17007KT 29/13 A2995 RMK A01 T02890131  RH  038%=      5-min Rain = 0
KCO2 060536Z 17007KT 29/13 A2995 RMK A01 T02890131  RH  038%=      5-min Rain = 0
KCO2 060537Z 17007KT 29/13 A2995 RMK A01 T02890131  RH  038%=      5-min Rain = 0
KCO2 060538Z 17008KT 29/13 A2995 RMK A01 T02890131  RH  038%=      5-min Rain = 0
KCO2 060539Z 17007KT 29/13 A2995 RMK A01 T02890132  RH  038%=      5-min Rain = 0
KCO2 060540Z 17006KT 29/13 A2995 RMK A01 T02880131  RH  038%=      5-min Rain = 0
KCO2 060541Z 17006KT 29/13 A2995 RMK A01 T02880131  RH  038%=      5-min Rain = 0
KCO2 060542Z 17006KT 29/13 A2995 RMK A01 T02880132  RH  038%=      5-min Rain = 0
KCO2 060543Z 17006KT 29/13 A2995 RMK A01 T02870131  RH  038%=      5-min Rain = 0
KCO2 060544Z 17006KT 29/13 A2995 RMK A01 T02870131  RH  038%=      5-min Rain = 0
KCO2 060545Z 17006KT 29/13 A2995 RMK A01 T02870132  RH  038%=      5-min Rain = 0
KCO2 060546Z 17007KT 29/13 A2995 RMK A01 T02860131  RH  038%=      5-min Rain = 0
KCO2 060547Z 18006KT 29/13 A2995 RMK A01 T02870131  RH  038%=      5-min Rain = 0
KCO2 060548Z 18007KT 29/13 A2995 RMK A01 T02870132  RH  038%=      5-min Rain = 0
KCO2 060549Z 18007KT 29/13 A2995 RMK A01 T02870132  RH  038%=      5-min Rain = 0
KCO2 060550Z 18007KT 29/13 A2995 RMK A01 T02880132  RH  038%=      5-min Rain = 0
KCO2 060551Z 18008KT 29/13 A2995 RMK A01 T02880132  RH  038%=      5-min Rain = 0
KCO2 060552Z 17007KT 29/13 A2995 RMK A01 T02880132  RH  038%=      5-min Rain = 0
KCO2 060553Z 18008KT 29/13 A2995 RMK A01 T02880132  RH  038%=      5-min Rain = 0
KCO2 060554Z 17009KT 29/13 A2995 RMK A01 T02880133  RH  038%=      5-min Rain = 0
KCO2 060555Z 18007KT 29/13 A2995 RMK A01 T02890133  RH  038%=      5-min Rain = 0
KCO2 060556Z 17007KT 29/13 A2995 RMK A01 T02890133  RH  038%=      5-min Rain = 0
KCO2 060557Z 17008KT 29/13 A2995 RMK A01 T02890133  RH  038%=      5-min Rain = 0
KCO2 060558Z 17008KT 29/13 A2995 RMK A01 T02880133  RH  038%=      5-min Rain = 0
KCO2 060559Z 17008KT 29/13 A2995 RMK A01 T02890133  RH  038%=      5-min Rain = 0
KCO2 060600Z 16009KT 29/13 A2995 RMK A01 T02890133  RH  038%=      5-min Rain = 0
KCO2 060601Z 17008KT 29/13 A2995 RMK A01 T02890133  RH  038%=      5-min Rain = 0
KCO2 060602Z 16008KT 29/13 A2995 RMK A01 T02890134  RH  038%=      5-min Rain = 0
KCO2 060603Z 16007KT 29/13 A2995 RMK A01 T02890134  RH  038%=      5-min Rain = 0
KCO2 060604Z 16007KT 29/13 A2995 RMK A01 T02890134  RH  039%=      5-min Rain = 0
KCO2 060605Z 16007KT 29/13 A2995 RMK A01 T02880134  RH  039%=      5-min Rain = 0
KCO2 060606Z 17007KT 29/13 A2995 RMK A01 T02870134  RH  039%=      5-min Rain = 0
KCO2 060607Z 17007KT 29/13 A2995 RMK A01 T02870134  RH  039%=      5-min Rain = 0
KCO2 060608Z 16007KT 29/13 A2995 RMK A01 T02870134  RH  039%=      5-min Rain = 0
KCO2 060609Z 16007KT 29/14 A2995 RMK A01 T02870135  RH  039%=      5-min Rain = 0
KCO2 060610Z 16007KT 29/14 A2995 RMK A01 T02860135  RH  039%=      5-min Rain = 0
KCO2 060611Z 16007KT 29/14 A2995 RMK A01 T02860135  RH  039%=      5-min Rain = 0
KCO2 060612Z 16008KT 29/14 A2995 RMK A01 T02860135  RH  040%=      5-min Rain = 0
KCO2 060613Z 16007KT 29/14 A2995 RMK A01 T02860135  RH  040%=      5-min Rain = 0
KCO2 060614Z 16006KT 29/14 A2995 RMK A01 T02850135  RH  040%=      5-min Rain = 0
KCO2 060615Z 16007KT 29/14 A2996 RMK A01 T02850135  RH  040%=      5-min Rain = 0
KCO2 060616Z 16008KT 29/14 A2996 RMK A01 T02850136  RH  040%=      5-min Rain = 0
KCO2 060617Z 16007KT 28/14 A2996 RMK A01 T02840135  RH  040%=      5-min Rain = 0
KCO2 060618Z 16006KT 28/14 A2996 RMK A01 T02840135  RH  040%=      5-min Rain = 0
KCO2 060619Z 16006KT 28/14 A2996 RMK A01 T02840135  RH  040%=      5-min Rain = 0
KCO2 060620Z 16006KT 28/14 A2996 RMK A01 T02840136  RH  040%=      5-min Rain = 0
KCO2 060621Z 16006KT 28/14 A2996 RMK A01 T02840136  RH  040%=      5-min Rain = 0
KCO2 060622Z 16005KT 28/14 A2996 RMK A01 T02830136  RH  041%=      5-min Rain = 0
KCO2 060623Z 15005KT 28/14 A2996 RMK A01 T02820136  RH  041%=      5-min Rain = 0
KCO2 060624Z 15006KT 28/14 A2996 RMK A01 T02810136  RH  041%=      5-min Rain = 0
KCO2 060625Z 15005KT 28/14 A2996 RMK A01 T02800136  RH  041%=      5-min Rain = 0
KCO2 060626Z 16006KT 28/14 A2996 RMK A01 T02780136  RH  042%=      5-min Rain = 0
KCO2 060627Z 16005KT 28/14 A2996 RMK A01 T02780136  RH  042%=      5-min Rain = 0
KCO2 060628Z 16005KT 28/14 A2996 RMK A01 T02770137  RH  042%=      5-min Rain = 0
KCO2 060629Z 16005KT 28/14 A2996 RMK A01 T02760136  RH  042%=      5-min Rain = 0
KCO2 060630Z 16005KT 28/14 A2996 RMK A01 T02750137  RH  043%=      5-min Rain = 0
KCO2 060631Z 16005KT 27/14 A2996 RMK A01 T02740137  RH  043%=      5-min Rain = 0
KCO2 060632Z 16004KT 27/14 A2996 RMK A01 T02740136  RH  043%=      5-min Rain = 0
KCO2 060633Z 16004KT 27/14 A2996 RMK A01 T02730137  RH  043%=      5-min Rain = 0
KCO2 060634Z 16005KT 27/14 A2996 RMK A01 T02720137  RH  043%=      5-min Rain = 0
KCO2 060635Z 16005KT 27/14 A2997 RMK A01 T02720137  RH  043%=      5-min Rain = 0
KCO2 060636Z 16005KT 27/14 A2997 RMK A01 T02710137  RH  044%=      5-min Rain = 0
KCO2 060637Z 17004KT 27/14 A2997 RMK A01 T02710137  RH  044%=      5-min Rain = 0
KCO2 060638Z 16004KT 27/14 A2997 RMK A01 T02710137  RH  044%=      5-min Rain = 0
KCO2 060639Z 17004KT 27/14 A2997 RMK A01 T02700137  RH  044%=      5-min Rain = 0
KCO2 060640Z 17004KT 27/14 A2997 RMK A01 T02700137  RH  044%=      5-min Rain = 0
KCO2 060641Z 17004KT 27/14 A2997 RMK A01 T02690137  RH  044%=      5-min Rain = 0
KCO2 060642Z 17005KT 27/14 A2997 RMK A01 T02690137  RH  044%=      5-min Rain = 0
KCO2 060643Z 18004KT 27/14 A2997 RMK A01 T02680137  RH  044%=      5-min Rain = 0
KCO2 060644Z 18004KT 27/14 A2997 RMK A01 T02690137  RH  044%=      5-min Rain = 0
KCO2 060645Z 18004KT 27/14 A2997 RMK A01 T02690138  RH  044%=      5-min Rain = 0
KCO2 060646Z 18005KT 27/14 A2997 RMK A01 T02680137  RH  044%=      5-min Rain = 0
KCO2 060647Z 18005KT 27/14 A2997 RMK A01 T02680137  RH  044%=      5-min Rain = 0
KCO2 060648Z 18005KT 27/14 A2997 RMK A01 T02680137  RH  045%=      5-min Rain = 0
KCO2 060649Z 17005KT 27/14 A2997 RMK A01 T02670137  RH  045%=      5-min Rain = 0
KCO2 060650Z 17005KT 27/14 A2997 RMK A01 T02670137  RH  045%=      5-min Rain = 0
KCO2 060651Z 17005KT 27/14 A2997 RMK A01 T02670137  RH  045%=      5-min Rain = 0
KCO2 060652Z 16006KT 27/14 A2997 RMK A01 T02660137  RH  045%=      5-min Rain = 0
KCO2 060653Z 16006KT 27/14 A2997 RMK A01 T02660137  RH  045%=      5-min Rain = 0
KCO2 060654Z 16006KT 27/14 A2997 RMK A01 T02650137  RH  045%=      5-min Rain = 0
KCO2 060655Z 16006KT 27/14 A2997 RMK A01 T02650137  RH  045%=      5-min Rain = 0
KCO2 060656Z 16006KT 27/14 A2997 RMK A01 T02650137  RH  045%=      5-min Rain = 0
KCO2 060657Z 16006KT 26/14 A2997 RMK A01 T02640137  RH  045%=      5-min Rain = 0
KCO2 060658Z 15006KT 26/14 A2997 RMK A01 T02640137  RH  046%=      5-min Rain = 0
KCO2 060659Z 15006KT 26/14 A2997 RMK A01 T02630137  RH  046%=      5-min Rain = 0
KCO2 060700Z 15006KT 26/14 A2997 RMK A01 T02630137  RH  046%=      5-min Rain = 0
KCO2 060701Z 16006KT 26/14 A2997 RMK A01 T02630136  RH  045%=      5-min Rain = 0
KCO2 060702Z 16005KT 26/14 A2997 RMK A01 T02640136  RH  045%=      5-min Rain = 0
KCO2 060703Z 16005KT 26/14 A2997 RMK A01 T02640136  RH  045%=      5-min Rain = 0
KCO2 060704Z 17005KT 26/14 A2997 RMK A01 T02640136  RH  045%=      5-min Rain = 0
KCO2 060705Z 17005KT 27/14 A2997 RMK A01 T02650136  RH  045%=      5-min Rain = 0
KCO2 060706Z 18004KT 27/14 A2997 RMK A01 T02650136  RH  045%=      5-min Rain = 0
KCO2 060707Z 18004KT 27/14 A2997 RMK A01 T02650136  RH  045%=      5-min Rain = 0
KCO2 060708Z 18004KT 27/14 A2997 RMK A01 T02650136  RH  045%=      5-min Rain = 0
KCO2 060709Z 18004KT 27/14 A2997 RMK A01 T02650136  RH  045%=      5-min Rain = 0
KCO2 060710Z 19004KT 27/14 A2998 RMK A01 T02650136  RH  045%=      5-min Rain = 0
KCO2 060711Z 19005KT 27/14 A2998 RMK A01 T02650136  RH  045%=      5-min Rain = 0
KCO2 060712Z 19004KT 27/14 A2998 RMK A01 T02650136  RH  045%=      5-min Rain = 0
KCO2 060713Z 19004KT 27/14 A2998 RMK A01 T02650136  RH  045%=      5-min Rain = 0
KCO2 060714Z 18004KT 27/14 A2998 RMK A01 T02650136  RH  045%=      5-min Rain = 0
KCO2 060715Z 18005KT 27/14 A2998 RMK A01 T02650135  RH  045%=      5-min Rain = 0
KCO2 060716Z 18005KT 27/14 A2998 RMK A01 T02650136  RH  045%=      5-min Rain = 0
KCO2 060717Z 17005KT 27/14 A2998 RMK A01 T02660136  RH  045%=      5-min Rain = 0
KCO2 060718Z 17005KT 27/14 A2998 RMK A01 T02650136  RH  045%=      5-min Rain = 0
KCO2 060719Z 17006KT 27/14 A2998 RMK A01 T02650136  RH  045%=      5-min Rain = 0
KCO2 060720Z 16006KT 26/14 A2997 RMK A01 T02640137  RH  045%=      5-min Rain = 0
KCO2 060721Z 16007KT 26/14 A2997 RMK A01 T02630137  RH  046%=      5-min Rain = 0
KCO2 060722Z 16007KT 26/14 A2997 RMK A01 T02610136  RH  046%=      5-min Rain = 0
KCO2 060723Z 16007KT 26/14 A2997 RMK A01 T02610136  RH  046%=      5-min Rain = 0
KCO2 060724Z 16007KT 26/14 A2997 RMK A01 T02600136  RH  046%=      5-min Rain = 0
KCO2 060725Z 16007KT 26/14 A2997 RMK A01 T02600136  RH  046%=      5-min Rain = 0
KCO2 060726Z 16006KT 26/14 A2997 RMK A01 T02600136  RH  046%=      5-min Rain = 0
KCO2 060727Z 16006KT 26/14 A2997 RMK A01 T02600136  RH  046%=      5-min Rain = 0
KCO2 060728Z 16006KT 26/14 A2997 RMK A01 T02610137  RH  046%=      5-min Rain = 0
KCO2 060729Z 16006KT 26/14 A2997 RMK A01 T02620136  RH  046%=      5-min Rain = 0
KCO2 060730Z 16007KT 26/14 A2997 RMK A01 T02620136  RH  046%=      5-min Rain = 0
KCO2 060731Z 16006KT 26/14 A2997 RMK A01 T02630136  RH  046%=      5-min Rain = 0
KCO2 060732Z 16006KT 26/14 A2997 RMK A01 T02630136  RH  045%=      5-min Rain = 0
KCO2 060733Z 16007KT 26/14 A2997 RMK A01 T02640137  RH  045%=      5-min Rain = 0
KCO2 060734Z 16007KT 26/14 A2997 RMK A01 T02640136  RH  045%=      5-min Rain = 0
KCO2 060735Z 17007KT 27/14 A2997 RMK A01 T02650137  RH  045%=      5-min Rain = 0
KCO2 060736Z 16007KT 27/14 A2997 RMK A01 T02660137  RH  045%=      5-min Rain = 0
KCO2 060737Z 17007KT 27/14 A2997 RMK A01 T02670137  RH  045%=      5-min Rain = 0
KCO2 060738Z 17007KT 27/14 A2997 RMK A01 T02680137  RH  044%=      5-min Rain = 0
KCO2 060739Z 17007KT 27/14 A2997 RMK A01 T02690137  RH  044%=      5-min Rain = 0
KCO2 060740Z 17006KT 27/14 A2997 RMK A01 T02710138  RH  044%=      5-min Rain = 0
KCO2 060741Z 18007KT 27/14 A2997 RMK A01 T02720138  RH  044%=      5-min Rain = 0
KCO2 060742Z 18007KT 27/14 A2997 RMK A01 T02730139  RH  044%=      5-min Rain = 0
KCO2 060743Z 17006KT 27/14 A2997 RMK A01 T02730138  RH  043%=      5-min Rain = 0
KCO2 060744Z 17006KT 27/14 A2997 RMK A01 T02730139  RH  044%=      5-min Rain = 0
KCO2 060745Z 17006KT 27/14 A2997 RMK A01 T02730139  RH  044%=      5-min Rain = 0
KCO2 060746Z 17006KT 27/14 A2997 RMK A01 T02720139  RH  044%=      5-min Rain = 0
KCO2 060747Z 17008KT 27/14 A2997 RMK A01 T02720140  RH  044%=      5-min Rain = 0
KCO2 060748Z 17008KT 27/14 A2997 RMK A01 T02730140  RH  044%=      5-min Rain = 0
KCO2 060749Z 17007KT 28/14 A2997 RMK A01 T02750140  RH  044%=      5-min Rain = 0
KCO2 060750Z 18008KT 28/14 A2997 RMK A01 T02750140  RH  043%=      5-min Rain = 0
KCO2 060751Z 17007KT 28/14 A2997 RMK A01 T02760140  RH  043%=      5-min Rain = 0
KCO2 060752Z 18006KT 28/14 A2997 RMK A01 T02760141  RH  043%=      5-min Rain = 0
KCO2 060753Z 18007KT 28/14 A2997 RMK A01 T02760141  RH  043%=      5-min Rain = 0
KCO2 060754Z 18008KT 28/14 A2997 RMK A01 T02760141  RH  043%=      5-min Rain = 0
KCO2 060755Z 18008KT 28/14 A2997 RMK A01 T02770142  RH  043%=      5-min Rain = 0
KCO2 060756Z 17007KT 28/14 A2997 RMK A01 T02770142  RH  043%=      5-min Rain = 0
KCO2 060757Z 18007KT 28/14 A2997 RMK A01 T02780142  RH  043%=      5-min Rain = 0
KCO2 060758Z 17007KT 28/14 A2997 RMK A01 T02780142  RH  044%=      5-min Rain = 0
KCO2 060759Z 17007KT 28/14 A2997 RMK A01 T02770143  RH  044%=      5-min Rain = 0
KCO2 060800Z 18006KT 28/14 A2997 RMK A01 T02770143  RH  044%=      5-min Rain = 0
KCO2 060801Z 18007KT 28/14 A2997 RMK A01 T02760143  RH  044%=      5-min Rain = 0
KCO2 060802Z 18007KT 28/14 A2998 RMK A01 T02760143  RH  044%=      5-min Rain = 0
KCO2 060803Z 19006KT 28/14 A2998 RMK A01 T02760144  RH  044%=      5-min Rain = 0
KCO2 060804Z 18007KT 28/14 A2998 RMK A01 T02760144  RH  044%=      5-min Rain = 0
KCO2 060805Z 18007KT 28/14 A2998 RMK A01 T02760144  RH  044%=      5-min Rain = 0
KCO2 060806Z 18007KT 28/15 A2998 RMK A01 T02760145  RH  044%=      5-min Rain = 0
KCO2 060807Z 17007KT 28/15 A2998 RMK A01 T02770145  RH  044%=      5-min Rain = 0
KCO2 060808Z 17007KT 28/14 A2998 RMK A01 T02760144  RH  044%=      5-min Rain = 0
KCO2 060809Z 17006KT 28/15 A2998 RMK A01 T02760145  RH  044%=      5-min Rain = 0
KCO2 060810Z 17007KT 28/15 A2998 RMK A01 T02760145  RH  045%=      5-min Rain = 0
KCO2 060811Z 16007KT 28/15 A2997 RMK A01 T02760145  RH  045%=      5-min Rain = 0
KCO2 060812Z 17007KT 28/14 A2997 RMK A01 T02750144  RH  045%=      5-min Rain = 0
KCO2 060813Z 17007KT 28/15 A2997 RMK A01 T02750145  RH  045%=      5-min Rain = 0
KCO2 060814Z 17007KT 28/15 A2997 RMK A01 T02750145  RH  045%=      5-min Rain = 0
KCO2 060815Z 17007KT 28/14 A2997 RMK A01 T02750144  RH  045%=      5-min Rain = 0
KCO2 060816Z 17006KT 28/14 A2997 RMK A01 T02750144  RH  045%=      5-min Rain = 0
KCO2 060817Z 17006KT 28/14 A2997 RMK A01 T02750144  RH  045%=      5-min Rain = 0
KCO2 060818Z 17007KT 28/14 A2997 RMK A01 T02750144  RH  045%=      5-min Rain = 0
KCO2 060819Z 17006KT 28/14 A2997 RMK A01 T02750144  RH  045%=      5-min Rain = 0
KCO2 060820Z 18007KT 27/14 A2998 RMK A01 T02740143  RH  045%=      5-min Rain = 0
KCO2 060821Z 17007KT 27/14 A2998 RMK A01 T02740144  RH  045%=      5-min Rain = 0
KCO2 060822Z 17006KT 27/14 A2998 RMK A01 T02730144  RH  045%=      5-min Rain = 0
KCO2 060823Z 17007KT 27/14 A2998 RMK A01 T02740144  RH  045%=      5-min Rain = 0
KCO2 060824Z 17006KT 27/14 A2998 RMK A01 T02730143  RH  045%=      5-min Rain = 0
KCO2 060825Z 17006KT 27/14 A2998 RMK A01 T02740144  RH  045%=      5-min Rain = 0
KCO2 060826Z 17008KT 27/14 A2998 RMK A01 T02730144  RH  045%=      5-min Rain = 0
KCO2 060827Z 17008KT 27/14 A2998 RMK A01 T02730144  RH  045%=      5-min Rain = 0
KCO2 060828Z 17006KT 27/14 A2998 RMK A01 T02730143  RH  045%=      5-min Rain = 0
KCO2 060829Z 17006KT 27/14 A2998 RMK A01 T02740143  RH  045%=      5-min Rain = 0
KCO2 060830Z 17007KT 27/14 A2998 RMK A01 T02740143  RH  045%=      5-min Rain = 0
KCO2 060831Z 17007KT 27/14 A2998 RMK A01 T02740143  RH  045%=      5-min Rain = 0
KCO2 060832Z 17006KT 27/14 A2998 RMK A01 T02740143  RH  045%=      5-min Rain = 0
KCO2 060833Z 17005KT 27/14 A2998 RMK A01 T02740143  RH  045%=      5-min Rain = 0
KCO2 060834Z 17006KT 27/14 A2998 RMK A01 T02740143  RH  045%=      5-min Rain = 0
KCO2 060835Z 17005KT 27/14 A2998 RMK A01 T02730144  RH  045%=      5-min Rain = 0
KCO2 060836Z 17006KT 27/14 A2998 RMK A01 T02730144  RH  045%=      5-min Rain = 0
KCO2 060837Z 17006KT 27/14 A2998 RMK A01 T02710144  RH  046%=      5-min Rain = 0
KCO2 060838Z 17006KT 27/14 A2998 RMK A01 T02710144  RH  046%=      5-min Rain = 0
KCO2 060839Z 17006KT 27/14 A2998 RMK A01 T02710144  RH  046%=      5-min Rain = 0
KCO2 060840Z 17007KT 27/14 A2998 RMK A01 T02710144  RH  046%=      5-min Rain = 0
KCO2 060841Z 17006KT 27/14 A2998 RMK A01 T02710144  RH  046%=      5-min Rain = 0
KCO2 060842Z 17006KT 27/14 A2998 RMK A01 T02710144  RH  046%=      5-min Rain = 0
KCO2 060843Z 18007KT 27/14 A2998 RMK A01 T02720144  RH  046%=      5-min Rain = 0
KCO2 060844Z 17006KT 27/14 A2998 RMK A01 T02720144  RH  046%=      5-min Rain = 0
KCO2 060845Z 17006KT 27/14 A2998 RMK A01 T02720144  RH  046%=      5-min Rain = 0
KCO2 060846Z 18005KT 27/14 A2998 RMK A01 T02720144  RH  046%=      5-min Rain = 0
KCO2 060847Z 17007KT 27/15 A2998 RMK A01 T02710145  RH  046%=      5-min Rain = 0
KCO2 060848Z 17008KT 27/15 A2998 RMK A01 T02710145  RH  046%=      5-min Rain = 0
KCO2 060849Z 17006KT 27/15 A2998 RMK A01 T02710145  RH  046%=      5-min Rain = 0
KCO2 060850Z 17006KT 27/15 A2998 RMK A01 T02720145  RH  046%=      5-min Rain = 0
KCO2 060851Z 17005KT 27/15 A2998 RMK A01 T02720145  RH  046%=      5-min Rain = 0
KCO2 060852Z 17006KT 27/15 A2998 RMK A01 T02720145  RH  046%=      5-min Rain = 0
KCO2 060853Z 18006KT 27/15 A2998 RMK A01 T02710145  RH  046%=      5-min Rain = 0
KCO2 060854Z 17007KT 27/15 A2998 RMK A01 T02710146  RH  046%=      5-min Rain = 0
KCO2 060855Z 17006KT 27/15 A2998 RMK A01 T02710146  RH  046%=      5-min Rain = 0
KCO2 060856Z 17006KT 27/15 A2998 RMK A01 T02710146  RH  046%=      5-min Rain = 0
KCO2 060857Z 17008KT 27/15 A2998 RMK A01 T02710146  RH  046%=      5-min Rain = 0
KCO2 060858Z 17007KT 27/15 A2998 RMK A01 T02720146  RH  046%=      5-min Rain = 0
KCO2 060859Z 17007KT 27/15 A2998 RMK A01 T02720147  RH  046%=      5-min Rain = 0
KCO2 060900Z 17006KT 27/15 A2998 RMK A01 T02720147  RH  046%=      5-min Rain = 0
KCO2 060901Z 17008KT 27/15 A2998 RMK A01 T02720147  RH  046%=      5-min Rain = 0
KCO2 060902Z 17008KT 27/15 A2998 RMK A01 T02730147  RH  046%=      5-min Rain = 0
KCO2 060903Z 17007KT 27/15 A2998 RMK A01 T02730147  RH  046%=      5-min Rain = 0
KCO2 060904Z 17006KT 27/15 A2998 RMK A01 T02730147  RH  046%=      5-min Rain = 0
KCO2 060905Z 16006KT 27/15 A2998 RMK A01 T02730147  RH  046%=      5-min Rain = 0
KCO2 060906Z 17006KT 27/15 A2998 RMK A01 T02720147  RH  046%=      5-min Rain = 0
KCO2 060907Z 17007KT 27/15 A2998 RMK A01 T02710147  RH  047%=      5-min Rain = 0
KCO2 060908Z 16006KT 27/15 A2998 RMK A01 T02700147  RH  047%=      5-min Rain = 0
KCO2 060909Z 16006KT 27/15 A2998 RMK A01 T02700147  RH  047%=      5-min Rain = 0
KCO2 060910Z 16006KT 27/15 A2998 RMK A01 T02700147  RH  047%=      5-min Rain = 0
KCO2 060911Z 17004KT 27/15 A2998 RMK A01 T02690147  RH  047%=      5-min Rain = 0
KCO2 060912Z 17005KT 27/15 A2998 RMK A01 T02680147  RH  047%=      5-min Rain = 0
KCO2 060913Z 18006KT 27/15 A2998 RMK A01 T02680147  RH  047%=      5-min Rain = 0
KCO2 060914Z 17005KT 27/15 A2998 RMK A01 T02680147  RH  048%=      5-min Rain = 0
KCO2 060915Z 17005KT 27/15 A2998 RMK A01 T02680147  RH  048%=      5-min Rain = 0
KCO2 060916Z 17006KT 27/15 A2998 RMK A01 T02680148  RH  048%=      5-min Rain = 0
KCO2 060917Z 17005KT 27/15 A2998 RMK A01 T02670148  RH  048%=      5-min Rain = 0
KCO2 060918Z 17006KT 27/15 A2998 RMK A01 T02670148  RH  048%=      5-min Rain = 0
KCO2 060919Z 17005KT 27/15 A2998 RMK A01 T02670148  RH  048%=      5-min Rain = 0
KCO2 060920Z 17005KT 27/15 A2998 RMK A01 T02670148  RH  048%=      5-min Rain = 0
KCO2 060921Z 17005KT 27/15 A2998 RMK A01 T02670148  RH  048%=      5-min Rain = 0
KCO2 060922Z 17005KT 27/15 A2998 RMK A01 T02670148  RH  048%=      5-min Rain = 0
KCO2 060923Z 17005KT 27/15 A2999 RMK A01 T02660149  RH  048%=      5-min Rain = 0
KCO2 060924Z 17006KT 27/15 A2999 RMK A01 T02660149  RH  049%=      5-min Rain = 0
KCO2 060925Z 17005KT 27/15 A2999 RMK A01 T02650149  RH  049%=      5-min Rain = 0
KCO2 060926Z 17006KT 27/15 A2999 RMK A01 T02650149  RH  049%=      5-min Rain = 0
KCO2 060927Z 17006KT 27/15 A2999 RMK A01 T02650149  RH  049%=      5-min Rain = 0
KCO2 060928Z 18006KT 27/15 A2999 RMK A01 T02650149  RH  049%=      5-min Rain = 0
KCO2 060929Z 17008KT 27/15 A2999 RMK A01 T02660149  RH  049%=      5-min Rain = 0
KCO2 060930Z 18007KT 27/15 A2999 RMK A01 T02670150  RH  049%=      5-min Rain = 0
KCO2 060931Z 17006KT 27/15 A2999 RMK A01 T02680150  RH  048%=      5-min Rain = 0
KCO2 060932Z 17005KT 27/15 A2999 RMK A01 T02690151  RH  048%=      5-min Rain = 0
KCO2 060933Z 17005KT 27/15 A2999 RMK A01 T02680150  RH  048%=      5-min Rain = 0
KCO2 060934Z 17005KT 27/15 A2999 RMK A01 T02670150  RH  049%=      5-min Rain = 0
KCO2 060935Z 17005KT 27/15 A2999 RMK A01 T02660150  RH  049%=      5-min Rain = 0
KCO2 060936Z 17005KT 27/15 A2999 RMK A01 T02650150  RH  049%=      5-min Rain = 0
KCO2 060937Z 17006KT 27/15 A2999 RMK A01 T02650150  RH  049%=      5-min Rain = 0
KCO2 060938Z 17006KT 26/15 A2999 RMK A01 T02640150  RH  050%=      5-min Rain = 0
KCO2 060939Z 17006KT 26/15 A2999 RMK A01 T02630150  RH  050%=      5-min Rain = 0
KCO2 060940Z 17006KT 26/15 A2999 RMK A01 T02630150  RH  050%=      5-min Rain = 0
KCO2 060941Z 17006KT 26/15 A2999 RMK A01 T02630150  RH  050%=      5-min Rain = 0
KCO2 060942Z 16005KT 26/15 A2999 RMK A01 T02630151  RH  050%=      5-min Rain = 0
KCO2 060943Z 16006KT 26/15 A2999 RMK A01 T02620150  RH  050%=      5-min Rain = 0
KCO2 060944Z 16006KT 26/15 A2999 RMK A01 T02610151  RH  051%=      5-min Rain = 0
KCO2 060945Z 15006KT 26/15 A2999 RMK A01 T02610151  RH  051%=      5-min Rain = 0
KCO2 060946Z 16006KT 26/15 A2999 RMK A01 T02590151  RH  051%=      5-min Rain = 0
KCO2 060947Z 15006KT 26/15 A2999 RMK A01 T02580151  RH  051%=      5-min Rain = 0
KCO2 060948Z 15006KT 26/15 A2999 RMK A01 T02570151  RH  052%=      5-min Rain = 0
KCO2 060949Z 15006KT 26/15 A2999 RMK A01 T02560151  RH  052%=      5-min Rain = 0
KCO2 060950Z 15007KT 26/15 A2998 RMK A01 T02550151  RH  052%=      5-min Rain = 0
KCO2 060951Z 15006KT 26/15 A2998 RMK A01 T02550151  RH  053%=      5-min Rain = 0
KCO2 060952Z 15006KT 26/15 A2998 RMK A01 T02550151  RH  053%=      5-min Rain = 0
KCO2 060953Z 15006KT 26/15 A2998 RMK A01 T02550151  RH  053%=      5-min Rain = 0
KCO2 060954Z 15006KT 25/15 A2998 RMK A01 T02540152  RH  053%=      5-min Rain = 0
KCO2 060955Z 15006KT 25/15 A2998 RMK A01 T02530152  RH  053%=      5-min Rain = 0
KCO2 060956Z 15006KT 25/15 A2998 RMK A01 T02530153  RH  054%=      5-min Rain = 0
KCO2 060957Z 15006KT 25/15 A2998 RMK A01 T02520153  RH  054%=      5-min Rain = 0
KCO2 060958Z 15006KT 25/15 A2998 RMK A01 T02510153  RH  055%=      5-min Rain = 0
KCO2 060959Z 15006KT 25/15 A2998 RMK A01 T02500153  RH  055%=      5-min Rain = 0
KCO2 061000Z 15006KT 25/15 A2998 RMK A01 T02500154  RH  055%=      5-min Rain = 0
KCO2 061001Z 15005KT 25/15 A2998 RMK A01 T02490154  RH  055%=      5-min Rain = 0
KCO2 061002Z 15005KT 25/15 A2998 RMK A01 T02480154  RH  056%=      5-min Rain = 0
KCO2 061003Z 15005KT 25/15 A2998 RMK A01 T02480154  RH  056%=      5-min Rain = 0
KCO2 061004Z 15005KT 25/15 A2998 RMK A01 T02470154  RH  056%=      5-min Rain = 0
KCO2 061005Z 15005KT 25/16 A2998 RMK A01 T02460155  RH  057%=      5-min Rain = 0
KCO2 061006Z 15006KT 25/16 A2998 RMK A01 T02450155  RH  057%=      5-min Rain = 0
KCO2 061007Z 15006KT 25/16 A2998 RMK A01 T02450155  RH  057%=      5-min Rain = 0
KCO2 061008Z 15006KT 24/16 A2998 RMK A01 T02440155  RH  057%=      5-min Rain = 0
KCO2 061009Z 15005KT 24/16 A2998 RMK A01 T02440155  RH  058%=      5-min Rain = 0
KCO2 061010Z 15006KT 24/16 A2998 RMK A01 T02440155  RH  058%=      5-min Rain = 0
KCO2 061011Z 15006KT 24/16 A2998 RMK A01 T02430155  RH  058%=      5-min Rain = 0
KCO2 061012Z 15006KT 24/16 A2998 RMK A01 T02430155  RH  058%=      5-min Rain = 0
KCO2 061013Z 15006KT 24/16 A2998 RMK A01 T02420155  RH  058%=      5-min Rain = 0
KCO2 061014Z 15006KT 24/16 A2998 RMK A01 T02410155  RH  058%=      5-min Rain = 0
KCO2 061015Z 15006KT 24/16 A2998 RMK A01 T02410155  RH  059%=      5-min Rain = 0
KCO2 061016Z 15006KT 24/16 A2998 RMK A01 T02410155  RH  059%=      5-min Rain = 0
KCO2 061017Z 15006KT 24/16 A2998 RMK A01 T02410155  RH  059%=      5-min Rain = 0
KCO2 061018Z 15006KT 24/16 A2998 RMK A01 T02410156  RH  059%=      5-min Rain = 0
KCO2 061019Z 15006KT 24/16 A2998 RMK A01 T02410155  RH  059%=      5-min Rain = 0
KCO2 061020Z 15006KT 24/16 A2998 RMK A01 T02410156  RH  059%=      5-min Rain = 0
KCO2 061021Z 15006KT 24/16 A2998 RMK A01 T02420156  RH  059%=      5-min Rain = 0
KCO2 061022Z 15006KT 24/16 A2998 RMK A01 T02420156  RH  059%=      5-min Rain = 0
KCO2 061023Z 15006KT 24/16 A2998 RMK A01 T02420156  RH  059%=      5-min Rain = 0
KCO2 061024Z 15006KT 24/16 A2998 RMK A01 T02430157  RH  059%=      5-min Rain = 0
KCO2 061025Z 15006KT 24/16 A2998 RMK A01 T02430156  RH  058%=      5-min Rain = 0
KCO2 061026Z 15006KT 24/16 A2998 RMK A01 T02430157  RH  058%=      5-min Rain = 0
KCO2 061027Z 15006KT 24/16 A2998 RMK A01 T02430157  RH  058%=      5-min Rain = 0
KCO2 061028Z 15006KT 24/16 A2998 RMK A01 T02430156  RH  058%=      5-min Rain = 0
KCO2 061029Z 16006KT 24/16 A2998 RMK A01 T02430157  RH  058%=      5-min Rain = 0
KCO2 061030Z 16006KT 24/16 A2998 RMK A01 T02430157  RH  058%=      5-min Rain = 0
KCO2 061031Z 16006KT 24/16 A2998 RMK A01 T02430157  RH  058%=      5-min Rain = 0
KCO2 061032Z 16006KT 24/16 A2998 RMK A01 T02430156  RH  058%=      5-min Rain = 0
KCO2 061033Z 16006KT 24/16 A2998 RMK A01 T02440157  RH  058%=      5-min Rain = 0
KCO2 061034Z 16006KT 24/16 A2998 RMK A01 T02440157  RH  058%=      5-min Rain = 0
KCO2 061035Z 16006KT 24/16 A2998 RMK A01 T02440157  RH  058%=      5-min Rain = 0
KCO2 061036Z 16006KT 24/16 A2998 RMK A01 T02440157  RH  058%=      5-min Rain = 0
KCO2 061037Z 16005KT 24/16 A2998 RMK A01 T02440157  RH  058%=      5-min Rain = 0
KCO2 061038Z 16005KT 24/16 A2998 RMK A01 T02440157  RH  058%=      5-min Rain = 0
KCO2 061039Z 16006KT 24/16 A2998 RMK A01 T02440157  RH  058%=      5-min Rain = 0
KCO2 061040Z 16006KT 24/16 A2998 RMK A01 T02440157  RH  058%=      5-min Rain = 0
KCO2 061041Z 16005KT 24/16 A2998 RMK A01 T02440158  RH  059%=      5-min Rain = 0
KCO2 061042Z 16006KT 24/16 A2999 RMK A01 T02440158  RH  059%=      5-min Rain = 0
KCO2 061043Z 15005KT 24/16 A2999 RMK A01 T02440158  RH  059%=      5-min Rain = 0
KCO2 061044Z 16006KT 24/16 A2999 RMK A01 T02440158  RH  059%=      5-min Rain = 0
KCO2 061045Z 15005KT 24/16 A2999 RMK A01 T02440158  RH  059%=      5-min Rain = 0
KCO2 061046Z 16005KT 24/16 A2999 RMK A01 T02440158  RH  059%=      5-min Rain = 0
KCO2 061047Z 15005KT 24/16 A2999 RMK A01 T02440158  RH  059%=      5-min Rain = 0
KCO2 061048Z 16005KT 24/16 A2999 RMK A01 T02440158  RH  059%=      5-min Rain = 0
KCO2 061049Z 16005KT 24/16 A2999 RMK A01 T02440159  RH  059%=      5-min Rain = 0
KCO2 061050Z 16005KT 24/16 A2999 RMK A01 T02430159  RH  059%=      5-min Rain = 0
KCO2 061051Z 16005KT 24/16 A2999 RMK A01 T02430158  RH  059%=      5-min Rain = 0
KCO2 061052Z 16005KT 24/16 A2999 RMK A01 T02430159  RH  059%=      5-min Rain = 0
KCO2 061053Z 16005KT 24/16 A2999 RMK A01 T02430159  RH  059%=      5-min Rain = 0
KCO2 061054Z 16005KT 24/16 A2999 RMK A01 T02420159  RH  060%=      5-min Rain = 0
KCO2 061055Z 17006KT 24/16 A2999 RMK A01 T02420159  RH  059%=      5-min Rain = 0
KCO2 061056Z 17006KT 24/16 A2999 RMK A01 T02430159  RH  059%=      5-min Rain = 0
KCO2 061057Z 17006KT 24/16 A2999 RMK A01 T02430159  RH  059%=      5-min Rain = 0
KCO2 061058Z 17006KT 24/16 A2999 RMK A01 T02440159  RH  059%=      5-min Rain = 0
KCO2 061059Z 16006KT 24/16 A2999 RMK A01 T02440159  RH  059%=      5-min Rain = 0
KCO2 061100Z 16007KT 24/16 A2999 RMK A01 T02440159  RH  059%=      5-min Rain = 0
KCO2 061101Z 16007KT 24/16 A2999 RMK A01 T02440159  RH  059%=      5-min Rain = 0
KCO2 061102Z 16007KT 24/16 A2999 RMK A01 T02440159  RH  059%=      5-min Rain = 0
KCO2 061103Z 16006KT 25/16 A2999 RMK A01 T02450159  RH  059%=      5-min Rain = 0
KCO2 061104Z 16006KT 25/16 A2999 RMK A01 T02450160  RH  059%=      5-min Rain = 0
KCO2 061105Z 16006KT 25/16 A2999 RMK A01 T02450160  RH  059%=      5-min Rain = 0
KCO2 061106Z 16006KT 25/16 A2999 RMK A01 T02450160  RH  059%=      5-min Rain = 0
KCO2 061107Z 16006KT 25/16 A2999 RMK A01 T02450160  RH  059%=      5-min Rain = 0
KCO2 061108Z 16006KT 25/16 A2999 RMK A01 T02450160  RH  059%=      5-min Rain = 0
KCO2 061109Z 17006KT 25/16 A2999 RMK A01 T02450160  RH  059%=      5-min Rain = 0
KCO2 061110Z 17006KT 25/16 A2999 RMK A01 T02450160  RH  059%=      5-min Rain = 0
KCO2 061111Z 17007KT 24/16 A2999 RMK A01 T02440160  RH  059%=      5-min Rain = 0
KCO2 061112Z 17007KT 24/16 A2999 RMK A01 T02440160  RH  060%=      5-min Rain = 0
KCO2 061113Z 17006KT 24/16 A2999 RMK A01 T02440160  RH  060%=      5-min Rain = 0
KCO2 061114Z 17007KT 24/16 A2999 RMK A01 T02440160  RH  059%=      5-min Rain = 0
KCO2 061115Z 17006KT 25/16 A2999 RMK A01 T02450160  RH  059%=      5-min Rain = 0
KCO2 061116Z 17007KT 25/16 A2999 RMK A01 T02450160  RH  059%=      5-min Rain = 0
KCO2 061117Z 17007KT 25/16 A30 RMK A01 T02450161  RH  059%=      5-min Rain = 0
KCO2 061118Z 17007KT 24/16 A30 RMK A01 T02440160  RH  059%=      5-min Rain = 0
KCO2 061119Z 18007KT 25/16 A30 RMK A01 T02450161  RH  059%=      5-min Rain = 0
KCO2 061120Z 17007KT 25/16 A30 RMK A01 T02450161  RH  059%=      5-min Rain = 0
KCO2 061121Z 17007KT 25/16 A30 RMK A01 T02450161  RH  059%=      5-min Rain = 0
KCO2 061122Z 17006KT 25/16 A30 RMK A01 T02450161  RH  059%=      5-min Rain = 0
KCO2 061123Z 17006KT 25/16 A30 RMK A01 T02450161  RH  059%=      5-min Rain = 0
KCO2 061124Z 17006KT 25/16 A30 RMK A01 T02450161  RH  059%=      5-min Rain = 0
KCO2 061125Z 17006KT 25/16 A30 RMK A01 T02450161  RH  060%=      5-min Rain = 0
KCO2 061126Z 17006KT 24/16 A30 RMK A01 T02440161  RH  060%=      5-min Rain = 0
KCO2 061127Z 16007KT 24/16 A2999 RMK A01 T02440161  RH  060%=      5-min Rain = 0
KCO2 061128Z 16007KT 24/16 A2999 RMK A01 T02440161  RH  060%=      5-min Rain = 0
KCO2 061129Z 16007KT 24/16 A2999 RMK A01 T02430161  RH  060%=      5-min Rain = 0
KCO2 061130Z 16007KT 24/16 A2999 RMK A01 T02430161  RH  060%=      5-min Rain = 0
KCO2 061131Z 16007KT 24/16 A2999 RMK A01 T02420161  RH  060%=      5-min Rain = 0
KCO2 061132Z 16007KT 24/16 A2999 RMK A01 T02420161  RH  061%=      5-min Rain = 0
KCO2 061133Z 16006KT 24/16 A2999 RMK A01 T02420161  RH  061%=      5-min Rain = 0
KCO2 061134Z 16007KT 24/16 A30 RMK A01 T02420161  RH  061%=      5-min Rain = 0
KCO2 061135Z 15007KT 24/16 A30 RMK A01 T02420161  RH  061%=      5-min Rain = 0
KCO2 061136Z 16006KT 24/16 A30 RMK A01 T02410161  RH  061%=      5-min Rain = 0
KCO2 061137Z 16006KT 24/16 A30 RMK A01 T02420161  RH  061%=      5-min Rain = 0
KCO2 061138Z 16006KT 24/16 A30 RMK A01 T02410161  RH  061%=      5-min Rain = 0
KCO2 061139Z 16006KT 24/16 A30 RMK A01 T02410161  RH  061%=      5-min Rain = 0
KCO2 061140Z 16006KT 24/16 A30 RMK A01 T02400161  RH  061%=      5-min Rain = 0
KCO2 061141Z 16006KT 24/16 A30 RMK A01 T02410161  RH  061%=      5-min Rain = 0
KCO2 061142Z 16006KT 24/16 A30 RMK A01 T02400161  RH  061%=      5-min Rain = 0
KCO2 061143Z 17005KT 24/16 A30 RMK A01 T02400161  RH  061%=      5-min Rain = 0
KCO2 061144Z 16005KT 24/16 A30 RMK A01 T02390161  RH  061%=      5-min Rain = 0
KCO2 061145Z 16005KT 24/16 A30 RMK A01 T02390161  RH  062%=      5-min Rain = 0
KCO2 061146Z 16006KT 24/16 A30 RMK A01 T02380161  RH  062%=      5-min Rain = 0
KCO2 061147Z 16006KT 24/16 A30 RMK A01 T02380161  RH  062%=      5-min Rain = 0
KCO2 061148Z 16005KT 24/16 A30 RMK A01 T02380162  RH  062%=      5-min Rain = 0
KCO2 061149Z 16005KT 24/16 A30 RMK A01 T02370161  RH  062%=      5-min Rain = 0
KCO2 061150Z 16005KT 24/16 A30 RMK A01 T02370161  RH  063%=      5-min Rain = 0
KCO2 061151Z 16006KT 24/16 A30 RMK A01 T02360161  RH  063%=      5-min Rain = 0
KCO2 061152Z 16006KT 24/16 A30 RMK A01 T02360161  RH  063%=      5-min Rain = 0
KCO2 061153Z 16006KT 24/16 A30 RMK A01 T02360161  RH  063%=      5-min Rain = 0
KCO2 061154Z 15006KT 24/16 A30 RMK A01 T02360162  RH  063%=      5-min Rain = 0
KCO2 061155Z 16006KT 24/16 A30 RMK A01 T02350162  RH  063%=      5-min Rain = 0
KCO2 061156Z 16006KT 24/16 A30 RMK A01 T02350162  RH  064%=      5-min Rain = 0
KCO2 061157Z 16006KT 23/16 A30 RMK A01 T02340162  RH  064%=      5-min Rain = 0
KCO2 061158Z 16006KT 23/16 A30 RMK A01 T02340162  RH  064%=      5-min Rain = 0
KCO2 061159Z 16005KT 23/16 A30 RMK A01 T02340162  RH  064%=      5-min Rain = 0
KCO2 061200Z 16005KT 24/16 A30 RMK A01 T02350162  RH  064%=      5-min Rain = 0
KCO2 061201Z 16005KT 23/16 A30 RMK A01 T02340162  RH  064%=      5-min Rain = 0
KCO2 061202Z 16006KT 23/16 A30 RMK A01 T02340162  RH  064%=      5-min Rain = 0
KCO2 061203Z 16006KT 23/16 A30 RMK A01 T02340162  RH  064%=      5-min Rain = 0
KCO2 061204Z 16006KT 23/16 A30 RMK A01 T02330162  RH  064%=      5-min Rain = 0
KCO2 061205Z 16005KT 23/16 A30 RMK A01 T02330162  RH  064%=      5-min Rain = 0
KCO2 061206Z 16006KT 23/16 A30 RMK A01 T02330163  RH  065%=      5-min Rain = 0
KCO2 061207Z 16005KT 23/16 A30 RMK A01 T02330162  RH  065%=      5-min Rain = 0
KCO2 061208Z 16006KT 23/16 A30 RMK A01 T02330163  RH  065%=      5-min Rain = 0
KCO2 061209Z 16006KT 23/16 A30 RMK A01 T02330163  RH  065%=      5-min Rain = 0
KCO2 061210Z 16006KT 23/16 A30 RMK A01 T02320163  RH  065%=      5-min Rain = 0
KCO2 061211Z 16006KT 23/16 A30 RMK A01 T02320163  RH  065%=      5-min Rain = 0
KCO2 061212Z 16005KT 23/16 A30 RMK A01 T02320162  RH  065%=      5-min Rain = 0
KCO2 061213Z 17005KT 23/16 A30 RMK A01 T02320162  RH  065%=      5-min Rain = 0
KCO2 061214Z 16006KT 23/16 A30 RMK A01 T02330163  RH  065%=      5-min Rain = 0
KCO2 061215Z 17005KT 23/16 A30 RMK A01 T02320162  RH  065%=      5-min Rain = 0
KCO2 061216Z 17005KT 23/16 A30 RMK A01 T02320162  RH  065%=      5-min Rain = 0
KCO2 061217Z 17005KT 23/16 A30 RMK A01 T02320162  RH  065%=      5-min Rain = 0
KCO2 061218Z 16006KT 23/16 A30 RMK A01 T02320162  RH  065%=      5-min Rain = 0
KCO2 061219Z 16006KT 23/16 A30 RMK A01 T02310162  RH  065%=      5-min Rain = 0
KCO2 061220Z 16006KT 23/16 A30 RMK A01 T02310162  RH  065%=      5-min Rain = 0
KCO2 061221Z 16006KT 23/16 A30 RMK A01 T02310162  RH  065%=      5-min Rain = 0
KCO2 061222Z 16006KT 23/16 A30 RMK A01 T02310162  RH  065%=      5-min Rain = 0
KCO2 061223Z 16006KT 23/16 A30 RMK A01 T02320162  RH  065%=      5-min Rain = 0
KCO2 061224Z 16006KT 23/16 A30 RMK A01 T02320162  RH  065%=      5-min Rain = 0
KCO2 061225Z 16006KT 23/16 A30 RMK A01 T02330163  RH  065%=      5-min Rain = 0
KCO2 061226Z 16006KT 23/16 A30 RMK A01 T02340163  RH  064%=      5-min Rain = 0
KCO2 061227Z 16006KT 23/16 A30 RMK A01 T02340163  RH  064%=      5-min Rain = 0
KCO2 061228Z 16006KT 24/16 A30 RMK A01 T02350163  RH  064%=      5-min Rain = 0
KCO2 061229Z 16005KT 24/16 A30 RMK A01 T02350163  RH  064%=      5-min Rain = 0
KCO2 061230Z 16005KT 24/16 A30 RMK A01 T02350163  RH  064%=      5-min Rain = 0
KCO2 061231Z 15006KT 24/16 A30 RMK A01 T02360163  RH  064%=      5-min Rain = 0
KCO2 061232Z 16005KT 24/16 A30 RMK A01 T02360163  RH  064%=      5-min Rain = 0
KCO2 061233Z 16005KT 24/16 A30 RMK A01 T02360164  RH  064%=      5-min Rain = 0
KCO2 061234Z 16005KT 24/16 A30 RMK A01 T02370164  RH  064%=      5-min Rain = 0
KCO2 061235Z 16005KT 24/16 A30 RMK A01 T02370164  RH  064%=      5-min Rain = 0
KCO2 061236Z 16005KT 24/16 A30 RMK A01 T02370164  RH  064%=      5-min Rain = 0
KCO2 061237Z 15005KT 24/16 A30 RMK A01 T02370164  RH  064%=      5-min Rain = 0
KCO2 061238Z 15005KT 24/16 A30 RMK A01 T02370164  RH  064%=      5-min Rain = 0
KCO2 061239Z 16005KT 24/17 A30 RMK A01 T02380165  RH  064%=      5-min Rain = 0
KCO2 061240Z 16005KT 24/17 A30 RMK A01 T02380165  RH  064%=      5-min Rain = 0
KCO2 061241Z 15005KT 24/17 A30 RMK A01 T02380165  RH  064%=      5-min Rain = 0
KCO2 061242Z 16006KT 24/17 A30 RMK A01 T02390165  RH  063%=      5-min Rain = 0
KCO2 061243Z 16006KT 24/17 A30 RMK A01 T02390165  RH  063%=      5-min Rain = 0
KCO2 061244Z 16005KT 24/17 A3001 RMK A01 T02400166  RH  063%=      5-min Rain = 0
KCO2 061245Z 16005KT 24/17 A3001 RMK A01 T02410166  RH  063%=      5-min Rain = 0
KCO2 061246Z 15005KT 24/17 A3001 RMK A01 T02410166  RH  063%=      5-min Rain = 0
KCO2 061247Z 16005KT 24/17 A3001 RMK A01 T02420166  RH  062%=      5-min Rain = 0
KCO2 061248Z 16005KT 24/17 A3001 RMK A01 T02430166  RH  062%=      5-min Rain = 0
KCO2 061249Z 16005KT 24/17 A3001 RMK A01 T02440167  RH  062%=      5-min Rain = 0
KCO2 061250Z 16006KT 25/17 A3001 RMK A01 T02450167  RH  062%=      5-min Rain = 0
KCO2 061251Z 16005KT 25/17 A3001 RMK A01 T02450167  RH  062%=      5-min Rain = 0
KCO2 061252Z 16006KT 25/17 A3001 RMK A01 T02460168  RH  062%=      5-min Rain = 0
KCO2 061253Z 16006KT 25/17 A3001 RMK A01 T02470168  RH  061%=      5-min Rain = 0
KCO2 061254Z 16005KT 25/17 A3001 RMK A01 T02470168  RH  061%=      5-min Rain = 0
KCO2 061255Z 16005KT 25/17 A3001 RMK A01 T02480168  RH  061%=      5-min Rain = 0
KCO2 061256Z 16005KT 25/17 A3001 RMK A01 T02490169  RH  061%=      5-min Rain = 0
KCO2 061257Z 16006KT 25/17 A3001 RMK A01 T02500168  RH  060%=      5-min Rain = 0
KCO2 061258Z 16005KT 25/17 A3001 RMK A01 T02500168  RH  060%=      5-min Rain = 0
KCO2 061259Z 16005KT 25/17 A3001 RMK A01 T02510169  RH  060%=      5-min Rain = 0
KCO2 061300Z 16005KT 25/17 A3001 RMK A01 T02520169  RH  060%=      5-min Rain = 0
KCO2 061301Z 16006KT 25/17 A3001 RMK A01 T02530170  RH  060%=      5-min Rain = 0
KCO2 061302Z 16006KT 25/17 A3001 RMK A01 T02530169  RH  060%=      5-min Rain = 0
KCO2 061303Z 16006KT 25/17 A3001 RMK A01 T02540169  RH  059%=      5-min Rain = 0
KCO2 061304Z 16006KT 25/17 A3001 RMK A01 T02540169  RH  059%=      5-min Rain = 0
KCO2 061305Z 16006KT 26/17 A3001 RMK A01 T02550169  RH  059%=      5-min Rain = 0
KCO2 061306Z 16006KT 26/17 A3001 RMK A01 T02550170  RH  059%=      5-min Rain = 0
KCO2 061307Z 17006KT 26/17 A3001 RMK A01 T02560170  RH  059%=      5-min Rain = 0
KCO2 061308Z 17006KT 26/17 A3001 RMK A01 T02570171  RH  059%=      5-min Rain = 0
KCO2 061309Z 16005KT 26/17 A3001 RMK A01 T02580170  RH  058%=      5-min Rain = 0
KCO2 061310Z 17005KT 26/17 A3001 RMK A01 T02580171  RH  058%=      5-min Rain = 0
KCO2 061311Z 17005KT 26/17 A3001 RMK A01 T02590171  RH  058%=      5-min Rain = 0
KCO2 061312Z 17004KT 26/17 A3001 RMK A01 T02600172  RH  058%=      5-min Rain = 0
KCO2 061313Z 17005KT 26/17 A3001 RMK A01 T02610171  RH  058%=      5-min Rain = 0
KCO2 061314Z 17007KT 26/17 A3001 RMK A01 T02620171  RH  057%=      5-min Rain = 0
KCO2 061315Z 18008KT 26/17 A3001 RMK A01 T02620171  RH  057%=      5-min Rain = 0
KCO2 061316Z 17006KT 26/17 A3001 RMK A01 T02630171  RH  057%=      5-min Rain = 0
KCO2 061317Z 17008KT 26/17 A3001 RMK A01 T02630172  RH  057%=      5-min Rain = 0
KCO2 061318Z 18009KT 26/17 A3001 RMK A01 T02640171  RH  056%=      5-min Rain = 0
KCO2 061319Z 18010KT 27/17 A3001 RMK A01 T02650171  RH  056%=      5-min Rain = 0
KCO2 061320Z 18009KT 27/17 A3001 RMK A01 T02650171  RH  056%=      5-min Rain = 0
KCO2 061321Z 18007KT 27/17 A3001 RMK A01 T02650171  RH  056%=      5-min Rain = 0
KCO2 061322Z 18009KT 27/17 A3001 RMK A01 T02660171  RH  056%=      5-min Rain = 0
KCO2 061323Z 18009KT 27/17 A3001 RMK A01 T02660171  RH  056%=      5-min Rain = 0
KCO2 061324Z 17009KT 27/17 A3001 RMK A01 T02660171  RH  056%=      5-min Rain = 0
KCO2 061325Z 17008KT 27/17 A3001 RMK A01 T02670172  RH  056%=      5-min Rain = 0
KCO2 061326Z 17011KT 27/17 A3001 RMK A01 T02680173  RH  056%=      5-min Rain = 0
KCO2 061327Z 17008KT 27/17 A3001 RMK A01 T02680172  RH  055%=      5-min Rain = 0
KCO2 061328Z 18010KT 27/17 A3001 RMK A01 T02690172  RH  055%=      5-min Rain = 0
KCO2 061329Z 18010KT 27/17 A3001 RMK A01 T02690172  RH  055%=      5-min Rain = 0
KCO2 061330Z 17009KT 27/17 A3001 RMK A01 T02690172  RH  055%=      5-min Rain = 0
KCO2 061331Z 18009KT 27/17 A3001 RMK A01 T02690172  RH  055%=      5-min Rain = 0
KCO2 061332Z 18008KT 27/17 A3001 RMK A01 T02690172  RH  055%=      5-min Rain = 0
KCO2 061333Z 17008KT 27/17 A3001 RMK A01 T02700172  RH  055%=      5-min Rain = 0
KCO2 061334Z 18007KT 27/17 A3001 RMK A01 T02700172  RH  055%=      5-min Rain = 0
KCO2 061335Z 17007KT 27/17 A3001 RMK A01 T02710173  RH  055%=      5-min Rain = 0
KCO2 061336Z 17008KT 27/17 A3001 RMK A01 T02720174  RH  055%=      5-min Rain = 0
KCO2 061337Z 17009KT 27/17 A3001 RMK A01 T02730173  RH  054%=      5-min Rain = 0
KCO2 061338Z 18010KT 27/17 A3001 RMK A01 T02730174  RH  055%=      5-min Rain = 0
KCO2 061339Z 18010KT 27/17 A3001 RMK A01 T02730173  RH  054%=      5-min Rain = 0
KCO2 061340Z 16010KT 27/17 A3001 RMK A01 T02740174  RH  054%=      5-min Rain = 0
KCO2 061341Z 18010KT 27/17 A3001 RMK A01 T02740173  RH  054%=      5-min Rain = 0
KCO2 061342Z 18009KT 27/17 A3001 RMK A01 T02740174  RH  055%=      5-min Rain = 0
KCO2 061343Z 17009KT 27/17 A3001 RMK A01 T02740174  RH  054%=      5-min Rain = 0
KCO2 061344Z 19009KT 27/17 A3001 RMK A01 T02740174  RH  054%=      5-min Rain = 0
KCO2 061345Z 19008KT 28/18 A3001 RMK A01 T02760176  RH  054%=      5-min Rain = 0
KCO2 061346Z 18010KT 28/18 A3001 RMK A01 T02780175  RH  054%=      5-min Rain = 0
KCO2 061347Z 18013KT 28/18 A3001 RMK A01 T02780175  RH  054%=      5-min Rain = 0
KCO2 061348Z 19012KT 28/17 A3001 RMK A01 T02770174  RH  054%=      5-min Rain = 0
KCO2 061349Z 19010KT 28/17 A3001 RMK A01 T02750174  RH  054%=      5-min Rain = 0
KCO2 061350Z 18013KT 28/18 A3001 RMK A01 T02760175  RH  054%=      5-min Rain = 0
KCO2 061351Z 19013KT 28/17 A3001 RMK A01 T02760174  RH  054%=      5-min Rain = 0
KCO2 061352Z 19011KT 28/17 A3001 RMK A01 T02750174  RH  054%=      5-min Rain = 0
KCO2 061353Z 19009KT 28/18 A3002 RMK A01 T02750175  RH  055%=      5-min Rain = 0
KCO2 061354Z 19011KT 28/18 A3002 RMK A01 T02750175  RH  054%=      5-min Rain = 0
KCO2 061355Z 18013KT 28/18 A3002 RMK A01 T02750175  RH  054%=      5-min Rain = 0
KCO2 061356Z 19010KT 28/18 A3002 RMK A01 T02760175  RH  054%=      5-min Rain = 0
KCO2 061357Z 20009G14KT 28/18 A3002 RMK A01 T02770176  RH  054%=      5-min Rain = 0
KCO2 061358Z 20011KT 28/18 A3002 RMK A01 T02790176  RH  054%=      5-min Rain = 0
KCO2 061359Z 20011KT 28/18 A3002 RMK A01 T02790176  RH  054%=      5-min Rain = 0
KCO2 061400Z 18012KT 28/18 A3002 RMK A01 T02790177  RH  054%=      5-min Rain = 0
KCO2 061401Z 19010G15KT 28/18 A3002 RMK A01 T02790176  RH  054%=      5-min Rain = 0
KCO2 061402Z 19011KT 28/18 A3002 RMK A01 T02790176  RH  054%=      5-min Rain = 0
KCO2 061403Z 18012KT 28/18 A3002 RMK A01 T02790177  RH  054%=      5-min Rain = 0
KCO2 061404Z 18010KT 28/18 A3002 RMK A01 T02790177  RH  054%=      5-min Rain = 0
KCO2 061405Z 18011KT 28/18 A3002 RMK A01 T02790177  RH  054%=      5-min Rain = 0
KCO2 061406Z 19011KT 28/18 A3002 RMK A01 T02790177  RH  054%=      5-min Rain = 0
KCO2 061407Z 19012KT 28/18 A3002 RMK A01 T02800177  RH  054%=      5-min Rain = 0
KCO2 061408Z 18012KT 28/18 A3002 RMK A01 T02810177  RH  053%=      5-min Rain = 0
KCO2 061409Z 18013KT 28/18 A3002 RMK A01 T02810177  RH  053%=      5-min Rain = 0
KCO2 061410Z 19011KT 28/18 A3002 RMK A01 T02810178  RH  053%=      5-min Rain = 0
KCO2 061411Z 19011KT 28/18 A3002 RMK A01 T02820177  RH  053%=      5-min Rain = 0
KCO2 061412Z 19009G15KT 28/18 A3002 RMK A01 T02820178  RH  053%=      5-min Rain = 0
KCO2 061413Z 19011KT 28/18 A3002 RMK A01 T02830178  RH  053%=      5-min Rain = 0
KCO2 061414Z 20014KT 28/18 A3002 RMK A01 T02840179  RH  053%=      5-min Rain = 0
KCO2 061415Z 19015KT 28/18 A3002 RMK A01 T02840179  RH  053%=      5-min Rain = 0
KCO2 061416Z 20014KT 28/18 A3002 RMK A01 T02840178  RH  053%=      5-min Rain = 0
KCO2 061417Z 20012KT 28/18 A3002 RMK A01 T02840179  RH  053%=      5-min Rain = 0
KCO2 061418Z 19012KT 29/18 A3002 RMK A01 T02850179  RH  053%=      5-min Rain = 0
KCO2 061419Z 20012KT 29/18 A3002 RMK A01 T02860179  RH  052%=      5-min Rain = 0
KCO2 061420Z 19011KT 29/18 A3002 RMK A01 T02860179  RH  052%=      5-min Rain = 0
KCO2 061421Z 19012KT 29/18 A3002 RMK A01 T02880181  RH  052%=      5-min Rain = 0
KCO2 061422Z 19016KT 29/18 A3002 RMK A01 T02890180  RH  052%=      5-min Rain = 0
KCO2 061423Z 19015KT 29/18 A3002 RMK A01 T02890179  RH  052%=      5-min Rain = 0
KCO2 061424Z 19014KT 29/18 A3002 RMK A01 T02870179  RH  052%=      5-min Rain = 0
KCO2 061425Z 20016KT 29/18 A3002 RMK A01 T02860179  RH  052%=      5-min Rain = 0
KCO2 061426Z 20014KT 29/18 A3002 RMK A01 T02850179  RH  053%=      5-min Rain = 0
KCO2 061427Z 19015KT 29/18 A3002 RMK A01 T02850179  RH  053%=      5-min Rain = 0
KCO2 061428Z 20014KT 29/18 A3002 RMK A01 T02850179  RH  053%=      5-min Rain = 0
KCO2 061429Z 19013KT 29/18 A3002 RMK A01 T02860179  RH  053%=      5-min Rain = 0
KCO2 061430Z 18013KT 29/18 A3002 RMK A01 T02860180  RH  053%=      5-min Rain = 0
KCO2 061431Z 20012G17KT 29/18 A3002 RMK A01 T02870180  RH  052%=      5-min Rain = 0
KCO2 061432Z 19013KT 29/18 A3002 RMK A01 T02890180  RH  052%=      5-min Rain = 0
KCO2 061433Z 19013G18KT 29/18 A3002 RMK A01 T02890180  RH  052%=      5-min Rain = 0
KCO2 061434Z 19012KT 29/18 A3002 RMK A01 T02890180  RH  052%=      5-min Rain = 0
KCO2 061435Z 19013G18KT 29/18 A3002 RMK A01 T02900181  RH  052%=      5-min Rain = 0
KCO2 061436Z 19015KT 29/18 A3002 RMK A01 T02900180  RH  051%=      5-min Rain = 0
KCO2 061437Z 20014KT 29/18 A3002 RMK A01 T02890180  RH  052%=      5-min Rain = 0
KCO2 061438Z 20010KT 29/18 A3002 RMK A01 T02890180  RH  052%=      5-min Rain = 0
KCO2 061439Z 20013G18KT 29/18 A3002 RMK A01 T02890181  RH  052%=      5-min Rain = 0
KCO2 061440Z 19013KT 29/18 A3002 RMK A01 T02890179  RH  051%=      5-min Rain = 0
KCO2 061441Z 19015KT 29/18 A3002 RMK A01 T02900180  RH  051%=      5-min Rain = 0
KCO2 061442Z 20012KT 29/18 A3002 RMK A01 T02900180  RH  051%=      5-min Rain = 0
KCO2 061443Z 20013KT 29/18 A3002 RMK A01 T02890180  RH  052%=      5-min Rain = 0
KCO2 061444Z 20013KT 29/18 A3002 RMK A01 T02910180  RH  051%=      5-min Rain = 0
KCO2 061445Z 21014KT 29/18 A3002 RMK A01 T02920180  RH  051%=      5-min Rain = 0
KCO2 061446Z 21013G18KT 29/18 A3002 RMK A01 T02930179  RH  050%=      5-min Rain = 0
KCO2 061447Z 21012G17KT 29/18 A3002 RMK A01 T02930177  RH  050%=      5-min Rain = 0
KCO2 061448Z 21016KT 29/18 A3002 RMK A01 T02920177  RH  050%=      5-min Rain = 0
KCO2 061449Z 20015KT 29/18 A3002 RMK A01 T02910176  RH  050%=      5-min Rain = 0
KCO2 061450Z 20015KT 29/18 A3002 RMK A01 T02900177  RH  050%=      5-min Rain = 0
KCO2 061451Z 20014KT 29/18 A3002 RMK A01 T02910178  RH  050%=      5-min Rain = 0
KCO2 061452Z 21013KT 29/18 A3002 RMK A01 T02910178  RH  050%=      5-min Rain = 0
KCO2 061453Z 22015KT 29/18 A3002 RMK A01 T02920178  RH  050%=      5-min Rain = 0
KCO2 061454Z 20014KT 29/18 A3002 RMK A01 T02920177  RH  050%=      5-min Rain = 0
KCO2 061455Z 19016KT 29/18 A3002 RMK A01 T02940176  RH  049%=      5-min Rain = 0
KCO2 061456Z 19013KT 29/18 A3002 RMK A01 T02930176  RH  049%=      5-min Rain = 0
KCO2 061457Z 19012G18KT 29/18 A3002 RMK A01 T02940177  RH  049%=      5-min Rain = 0
KCO2 061458Z 20015KT 30/18 A3002 RMK A01 T02960177  RH  049%=      5-min Rain = 0
KCO2 061459Z 20013KT 30/18 A3002 RMK A01 T02960178  RH  049%=      5-min Rain = 0
KCO2 061500Z 19015KT 30/18 A3002 RMK A01 T02970178  RH  049%=      5-min Rain = 0
KCO2 061501Z 19013KT 30/18 A3002 RMK A01 T02960176  RH  049%=      5-min Rain = 0
KCO2 061502Z 19014KT 30/18 A3002 RMK A01 T02950177  RH  049%=      5-min Rain = 0
KCO2 061503Z 19014KT 30/18 A3002 RMK A01 T02960176  RH  048%=      5-min Rain = 0
KCO2 061504Z 20011G16KT 30/18 A3002 RMK A01 T02960176  RH  048%=      5-min Rain = 0
KCO2 061505Z 20011KT 30/18 A3002 RMK A01 T02980177  RH  048%=      5-min Rain = 0
KCO2 061506Z 20011KT 30/18 A3002 RMK A01 T02990176  RH  048%=      5-min Rain = 0
KCO2 061507Z 19014KT 30/18 A3002 RMK A01 T03000177  RH  048%=      5-min Rain = 0
KCO2 061508Z 18017KT 30/18 A3002 RMK A01 T03010176  RH  047%=      5-min Rain = 0
KCO2 061509Z 19017KT 30/18 A3002 RMK A01 T03010175  RH  047%=      5-min Rain = 0
KCO2 061510Z 19012KT 30/18 A3002 RMK A01 T03000176  RH  047%=      5-min Rain = 0
KCO2 061511Z 20011KT 30/18 A3002 RMK A01 T03010177  RH  047%=      5-min Rain = 0
KCO2 061512Z 19013KT 30/18 A3002 RMK A01 T03040178  RH  047%=      5-min Rain = 0
KCO2 061513Z 20016KT 31/18 A3002 RMK A01 T03060176  RH  046%=      5-min Rain = 0
KCO2 061514Z 20015KT 30/18 A3002 RMK A01 T03040176  RH  046%=      5-min Rain = 0
KCO2 061515Z 20015KT 30/18 A3002 RMK A01 T03020176  RH  047%=      5-min Rain = 0
KCO2 061516Z 19012KT 30/18 A3002 RMK A01 T03010177  RH  047%=      5-min Rain = 0
KCO2 061517Z 18013G20KT 30/18 A3002 RMK A01 T03020177  RH  047%=      5-min Rain = 0
KCO2 061518Z 19013KT 30/18 A3002 RMK A01 T03030176  RH  047%=      5-min Rain = 0
KCO2 061519Z 20012KT 30/18 A3002 RMK A01 T03030176  RH  046%=      5-min Rain = 0
KCO2 061520Z 21012G17KT 31/18 A3002 RMK A01 T03060178  RH  046%=      5-min Rain = 0
KCO2 061521Z 22013G18KT 31/18 A3002 RMK A01 T03060177  RH  046%=      5-min Rain = 0
KCO2 061522Z 22012KT 31/18 A3002 RMK A01 T03050179  RH  047%=      5-min Rain = 0
KCO2 061523Z 21010KT 31/18 A3002 RMK A01 T03060180  RH  047%=      5-min Rain = 0
KCO2 061524Z 20014KT 31/18 A3002 RMK A01 T03080179  RH  046%=      5-min Rain = 0
KCO2 061525Z 19016KT 31/18 A3002 RMK A01 T03080177  RH  046%=      5-min Rain = 0
KCO2 061526Z 20013KT 31/18 A3002 RMK A01 T03060176  RH  046%=      5-min Rain = 0
KCO2 061527Z 20015KT 31/18 A3002 RMK A01 T03060176  RH  046%=      5-min Rain = 0
KCO2 061528Z 19014KT 31/18 A3002 RMK A01 T03060176  RH  046%=      5-min Rain = 0
KCO2 061529Z 19015KT 31/18 A3002 RMK A01 T03060176  RH  046%=      5-min Rain = 0
KCO2 061530Z 19011G16KT 31/18 A3002 RMK A01 T03080176  RH  045%=      5-min Rain = 0
KCO2 061531Z 20012KT 31/18 A3002 RMK A01 T03080177  RH  045%=      5-min Rain = 0
KCO2 061532Z 19015G20KT 31/18 A3002 RMK A01 T03090177  RH  045%=      5-min Rain = 0
KCO2 061533Z 19017KT 31/18 A3002 RMK A01 T03110176  RH  045%=      5-min Rain = 0
KCO2 061534Z 19013KT 31/18 A3002 RMK A01 T03100176  RH  045%=      5-min Rain = 0
KCO2 061535Z 19013KT 31/18 A3002 RMK A01 T03100176  RH  045%=      5-min Rain = 0
KCO2 061536Z 18013KT 31/18 A3002 RMK A01 T03120177  RH  045%=      5-min Rain = 0
KCO2 061537Z 20014G19KT 31/18 A3002 RMK A01 T03120175  RH  044%=      5-min Rain = 0
KCO2 061538Z 21017KT 31/17 A3002 RMK A01 T03110174  RH  044%=      5-min Rain = 0
KCO2 061539Z 20013KT 31/18 A3002 RMK A01 T03090176  RH  045%=      5-min Rain = 0
KCO2 061540Z 19014KT 31/18 A3002 RMK A01 T03080177  RH  045%=      5-min Rain = 0
KCO2 061541Z 20014KT 31/18 A3002 RMK A01 T03100177  RH  045%=      5-min Rain = 0
KCO2 061542Z 20015KT 31/18 A3002 RMK A01 T03110175  RH  044%=      5-min Rain = 0
KCO2 061543Z 20013KT 31/18 A3002 RMK A01 T03100175  RH  045%=      5-min Rain = 0
KCO2 061544Z 22012KT 31/18 A3002 RMK A01 T03100176  RH  045%=      5-min Rain = 0
KCO2 061545Z 21010KT 31/18 A3002 RMK A01 T03100176  RH  045%=      5-min Rain = 0
KCO2 061546Z 20010KT 31/18 A3002 RMK A01 T03100177  RH  045%=      5-min Rain = 0
KCO2 061547Z 18014KT 31/18 A3002 RMK A01 T03140178  RH  044%=      5-min Rain = 0
KCO2 061548Z 18014KT 31/18 A3002 RMK A01 T03140176  RH  044%=      5-min Rain = 0
KCO2 061549Z 19012KT 31/18 A3002 RMK A01 T03130175  RH  044%=      5-min Rain = 0
KCO2 061550Z 19011KT 31/18 A3002 RMK A01 T03130177  RH  044%=      5-min Rain = 0
KCO2 061551Z 21012KT 32/18 A3002 RMK A01 T03170176  RH  043%=      5-min Rain = 0
KCO2 061552Z 21013G18KT 32/18 A3002 RMK A01 T03160177  RH  043%=      5-min Rain = 0
KCO2 061553Z 21009G14KT 32/18 A3002 RMK A01 T03160177  RH  043%=      5-min Rain = 0
KCO2 061554Z 18012G17KT 32/18 A3002 RMK A01 T03170178  RH  044%=      5-min Rain = 0
KCO2 061555Z 17013KT 32/18 A3002 RMK A01 T03180178  RH  043%=      5-min Rain = 0
KCO2 061556Z 18012KT 32/18 A3002 RMK A01 T03180178  RH  043%=      5-min Rain = 0
KCO2 061557Z 21013KT 32/18 A3002 RMK A01 T03190178  RH  043%=      5-min Rain = 0
KCO2 061558Z 20011KT 32/18 A3002 RMK A01 T03190176  RH  043%=      5-min Rain = 0
KCO2 061559Z 20010KT 32/18 A3002 RMK A01 T03210177  RH  042%=      5-min Rain = 0
KCO2 061600Z 21012G17KT 32/18 A3002 RMK A01 T03240177  RH  042%=      5-min Rain = 0
KCO2 061601Z 21015KT 33/18 A3002 RMK A01 T03260177  RH  041%=      5-min Rain = 0
KCO2 061602Z 21013KT 32/18 A3002 RMK A01 T03240176  RH  041%=      5-min Rain = 0
KCO2 061603Z 20012KT 32/18 A3002 RMK A01 T03220178  RH  042%=      5-min Rain = 0
KCO2 061604Z 19010KT 32/18 A3002 RMK A01 T03210177  RH  042%=      5-min Rain = 0
KCO2 061605Z 19012KT 32/18 A3002 RMK A01 T03210178  RH  043%=      5-min Rain = 0
KCO2 061606Z 19014KT 32/18 A3002 RMK A01 T03220178  RH  042%=      5-min Rain = 0
KCO2 061607Z 21010KT 32/18 A3002 RMK A01 T03210178  RH  043%=      5-min Rain = 0
KCO2 061608Z 22010KT 32/18 A3002 RMK A01 T03240179  RH  042%=      5-min Rain = 0
KCO2 061609Z 20012G18KT 32/18 A3002 RMK A01 T03230179  RH  042%=      5-min Rain = 0
KCO2 061610Z 19015KT 32/18 A3002 RMK A01 T03240178  RH  042%=      5-min Rain = 0
KCO2 061611Z 19012KT 32/18 A3002 RMK A01 T03220177  RH  042%=      5-min Rain = 0
KCO2 061612Z 19012KT 32/18 A3002 RMK A01 T03200178  RH  043%=      5-min Rain = 0
KCO2 061613Z 18013G18KT 32/18 A3002 RMK A01 T03220178  RH  042%=      5-min Rain = 0
KCO2 061614Z 17012KT 32/18 A3002 RMK A01 T03230178  RH  042%=      5-min Rain = 0
KCO2 061615Z 18012KT 32/18 A3002 RMK A01 T03240180  RH  042%=      5-min Rain = 0
KCO2 061616Z 19011KT 33/18 A3002 RMK A01 T03250180  RH  042%=      5-min Rain = 0
KCO2 061617Z 21011KT 33/18 A3002 RMK A01 T03270176  RH  041%=      5-min Rain = 0
KCO2 061618Z 22011KT 33/18 A3002 RMK A01 T03270176  RH  041%=      5-min Rain = 0
KCO2 061619Z 22010KT 33/18 A3002 RMK A01 T03280176  RH  040%=      5-min Rain = 0
KCO2 061620Z 22011KT 33/18 A3002 RMK A01 T03290178  RH  041%=      5-min Rain = 0
KCO2 061621Z 23012KT 33/18 A3002 RMK A01 T03300179  RH  041%=      5-min Rain = 0
KCO2 061622Z 23012KT 33/18 A3002 RMK A01 T03280179  RH  041%=      5-min Rain = 0
KCO2 061623Z 21008KT 33/18 A3002 RMK A01 T03260180  RH  042%=      5-min Rain = 0
KCO2 061624Z 20010KT 33/18 A3002 RMK A01 T03260180  RH  042%=      5-min Rain = 0
KCO2 061625Z 20010KT 33/18 A3002 RMK A01 T03280182  RH  042%=      5-min Rain = 0
KCO2 061626Z 19014KT 33/18 A3002 RMK A01 T03310180  RH  041%=      5-min Rain = 0
KCO2 061627Z 21015KT 33/18 A3002 RMK A01 T03310176  RH  040%=      5-min Rain = 0
KCO2 061628Z 21013KT 33/17 A3002 RMK A01 T03270174  RH  040%=      5-min Rain = 0
KCO2 061629Z 22010KT 33/18 A3002 RMK A01 T03250176  RH  041%=      5-min Rain = 0
KCO2 061630Z 23010KT 33/18 A3002 RMK A01 T03270178  RH  041%=      5-min Rain = 0
KCO2 061631Z 20011KT 33/18 A3002 RMK A01 T03280180  RH  041%=      5-min Rain = 0
KCO2 061632Z 19012KT 33/18 A3002 RMK A01 T03300182  RH  041%=      5-min Rain = 0
KCO2 061633Z 18012KT 33/18 A3002 RMK A01 T03290182  RH  042%=      5-min Rain = 0
KCO2 061634Z 19012KT 33/18 A3002 RMK A01 T03270182  RH  042%=      5-min Rain = 0
KCO2 061635Z 20011KT 33/18 A3002 RMK A01 T03280182  RH  042%=      5-min Rain = 0
KCO2 061636Z 21009KT 33/18 A3002 RMK A01 T03280182  RH  042%=      5-min Rain = 0
KCO2 061637Z 18010G20KT 33/18 A3002 RMK A01 T03310183  RH  042%=      5-min Rain = 0
KCO2 061638Z 22012KT 34/18 A3002 RMK A01 T03380182  RH  040%=      5-min Rain = 0
KCO2 061639Z 19010KT 34/18 A3002 RMK A01 T03390179  RH  039%=      5-min Rain = 0
KCO2 061640Z 19010KT 34/18 A3002 RMK A01 T03390181  RH  039%=      5-min Rain = 0
KCO2 061641Z 19011KT 34/18 A3002 RMK A01 T03400179  RH  039%=      5-min Rain = 0
KCO2 061642Z 19010KT 34/18 A3002 RMK A01 T03400178  RH  038%=      5-min Rain = 0
KCO2 061643Z 21012KT 34/18 A3002 RMK A01 T03400178  RH  038%=      5-min Rain = 0
KCO2 061644Z 22012KT 34/18 A3002 RMK A01 T03390179  RH  039%=      5-min Rain = 0
KCO2 061645Z 21010G16KT 34/18 A3002 RMK A01 T03360179  RH  039%=      5-min Rain = 0
KCO2 061646Z 20012KT 34/18 A3002 RMK A01 T03360179  RH  039%=      5-min Rain = 0
KCO2 061647Z 20013G18KT 34/18 A3002 RMK A01 T03370176  RH  038%=      5-min Rain = 0
KCO2 061648Z 20013KT 34/18 A3002 RMK A01 T03360176  RH  039%=      5-min Rain = 0
KCO2 061649Z 19011KT 34/18 A3002 RMK A01 T03360175  RH  039%=      5-min Rain = 0
KCO2 061650Z 20013KT 34/18 A3002 RMK A01 T03360178  RH  039%=      5-min Rain = 0
KCO2 061651Z 21013KT 34/18 A3002 RMK A01 T03400176  RH  038%=      5-min Rain = 0
KCO2 061652Z 21009KT 34/18 A3002 RMK A01 T03400176  RH  038%=      5-min Rain = 0
KCO2 061653Z 20013KT 34/18 A3002 RMK A01 T03390177  RH  038%=      5-min Rain = 0
KCO2 061654Z 19011KT 34/18 A3002 RMK A01 T03390177  RH  038%=      5-min Rain = 0
KCO2 061655Z 18012KT 34/18 A3002 RMK A01 T03380178  RH  039%=      5-min Rain = 0
KCO2 061656Z 18012KT 34/18 A3002 RMK A01 T03390178  RH  039%=      5-min Rain = 0
KCO2 061657Z 19010KT 34/18 A3002 RMK A01 T03380178  RH  039%=      5-min Rain = 0
KCO2 061658Z 21009KT 34/18 A3002 RMK A01 T03370177  RH  039%=      5-min Rain = 0
KCO2 061659Z 21012G19KT 34/18 A3002 RMK A01 T03360176  RH  039%=      5-min Rain = 0
KCO2 061700Z 20012G17KT 34/17 A3002 RMK A01 T03390166  RH  036%=      5-min Rain = 0
KCO2 061701Z 20013KT 34/17 A3002 RMK A01 T03410171  RH  036%=      5-min Rain = 0
KCO2 061702Z 19010G15KT 34/17 A3002 RMK A01 T03390171  RH  037%=      5-min Rain = 0
KCO2 061703Z 19009KT 34/17 A3002 RMK A01 T03360173  RH  038%=      5-min Rain = 0
KCO2 061704Z 21014KT 34/18 A3002 RMK A01 T03370175  RH  038%=      5-min Rain = 0
KCO2 061705Z 20010KT 34/17 A3002 RMK A01 T03390174  RH  038%=      5-min Rain = 0
KCO2 061706Z 21010KT 34/18 A3002 RMK A01 T03390177  RH  038%=      5-min Rain = 0
KCO2 061707Z 23014KT 34/18 A3001 RMK A01 T03420178  RH  038%=      5-min Rain = 0
KCO2 061708Z 21012KT 34/18 A3001 RMK A01 T03400175  RH  038%=      5-min Rain = 0
KCO2 061709Z 21013KT 34/18 A3001 RMK A01 T03390177  RH  038%=      5-min Rain = 0
KCO2 061710Z 22014KT 34/18 A3001 RMK A01 T03400178  RH  038%=      5-min Rain = 0
KCO2 061711Z 20012G17KT 34/18 A3001 RMK A01 T03390176  RH  038%=      5-min Rain = 0
KCO2 061712Z 22012G17KT 34/17 A3001 RMK A01 T03380174  RH  038%=      5-min Rain = 0
KCO2 061713Z 22014KT 34/17 A3001 RMK A01 T03380174  RH  038%=      5-min Rain = 0
KCO2 061714Z 20014KT 34/17 A3001 RMK A01 T03410174  RH  037%=      5-min Rain = 0
KCO2 061715Z 19013KT 34/18 A3001 RMK A01 T03440176  RH  037%=      5-min Rain = 0
KCO2 061716Z 18015KT 35/18 A3001 RMK A01 T03480175  RH  036%=      5-min Rain = 0
KCO2 061717Z 18012KT 35/18 A3001 RMK A01 T03480175  RH  036%=      5-min Rain = 0
KCO2 061718Z 19014KT 35/17 A3001 RMK A01 T03470174  RH  036%=      5-min Rain = 0
KCO2 061719Z 19012KT 35/17 A3001 RMK A01 T03470172  RH  035%=      5-min Rain = 0
KCO2 061720Z 19014KT 35/17 A3001 RMK A01 T03480173  RH  035%=      5-min Rain = 0
KCO2 061721Z 18016KT 35/18 A3001 RMK A01 T03450175  RH  036%=      5-min Rain = 0
KCO2 061722Z 18014G19KT 35/18 A3001 RMK A01 T03450176  RH  037%=      5-min Rain = 0
KCO2 061723Z 19010KT 35/18 A3001 RMK A01 T03460176  RH  037%=      5-min Rain = 0
KCO2 061724Z 19008KT 34/18 A3001 RMK A01 T03440177  RH  037%=      5-min Rain = 0
KCO2 061725Z 20014G19KT 35/18 A3001 RMK A01 T03470175  RH  036%=      5-min Rain = 0
KCO2 061726Z 19016KT 35/17 A3001 RMK A01 T03510173  RH  035%=      5-min Rain = 0
KCO2 061727Z 20014KT 35/17 A3001 RMK A01 T03500173  RH  035%=      5-min Rain = 0
KCO2 061728Z 21011KT 35/17 A3001 RMK A01 T03460171  RH  035%=      5-min Rain = 0
KCO2 061729Z 21013KT 35/17 A3001 RMK A01 T03470171  RH  035%=      5-min Rain = 0
KCO2 061730Z 22012KT 35/18 A3001 RMK A01 T03490175  RH  036%=      5-min Rain = 0
KCO2 061731Z 20014KT 35/18 A3001 RMK A01 T03510176  RH  036%=      5-min Rain = 0
KCO2 061732Z 20010KT 35/18 A3001 RMK A01 T03530176  RH  035%=      5-min Rain = 0
KCO2 061733Z 21009KT 35/18 A3001 RMK A01 T03510176  RH  036%=      5-min Rain = 0
KCO2 061734Z 19011KT 35/18 A3001 RMK A01 T03480175  RH  036%=      5-min Rain = 0
KCO2 061735Z 21012KT 35/17 A3001 RMK A01 T03480174  RH  036%=      5-min Rain = 0
KCO2 061736Z 23011KT 35/17 A3001 RMK A01 T03480173  RH  036%=      5-min Rain = 0
KCO2 061737Z 23011KT 35/17 A30 RMK A01 T03450173  RH  036%=      5-min Rain = 0
KCO2 061738Z 22010KT 34/17 A3001 RMK A01 T03430174  RH  037%=      5-min Rain = 0
KCO2 061739Z 20012KT 35/18 A30 RMK A01 T03450177  RH  037%=      5-min Rain = 0
KCO2 061740Z 20014KT 35/18 A3001 RMK A01 T03470177  RH  037%=      5-min Rain = 0
KCO2 061741Z 20013KT 35/18 A3001 RMK A01 T03470177  RH  036%=      5-min Rain = 0
KCO2 061742Z 19010KT 35/17 A30 RMK A01 T03470172  RH  036%=      5-min Rain = 0
KCO2 061743Z 19009KT 35/17 A30 RMK A01 T03460174  RH  036%=      5-min Rain = 0
KCO2 061744Z 20010KT 35/18 A30 RMK A01 T03490175  RH  036%=      5-min Rain = 0
KCO2 061745Z 21014KT 36/18 A30 RMK A01 T03570175  RH  034%=      5-min Rain = 0
KCO2 061746Z 18011G17KT 36/18 A30 RMK A01 T03600176  RH  034%=      5-min Rain = 0
KCO2 061747Z 18014KT 36/18 A30 RMK A01 T03610175  RH  033%=      5-min Rain = 0
KCO2 061748Z 19011KT 36/17 A30 RMK A01 T03580174  RH  034%=      5-min Rain = 0
KCO2 061749Z 21008KT 36/18 A30 RMK A01 T03580176  RH  034%=      5-min Rain = 0
KCO2 061750Z 20009KT 36/18 A30 RMK A01 T03610178  RH  034%=      5-min Rain = 0
KCO2 061751Z 19010KT 36/17 A30 RMK A01 T03600171  RH  033%=      5-min Rain = 0
KCO2 061752Z 19008KT 36/17 A30 RMK A01 T03570171  RH  033%=      5-min Rain = 0
KCO2 061753Z 20008KT 36/17 A30 RMK A01 T03580172  RH  033%=      5-min Rain = 0
KCO2 061754Z 20010KT 36/17 A30 RMK A01 T03610174  RH  033%=      5-min Rain = 0
KCO2 061755Z 20013KT 36/17 A30 RMK A01 T03620174  RH  033%=      5-min Rain = 0
KCO2 061756Z 19013KT 36/17 A30 RMK A01 T03590174  RH  034%=      5-min Rain = 0
KCO2 061757Z 21012KT 36/18 A30 RMK A01 T03560176  RH  035%=      5-min Rain = 0
KCO2 061758Z 21012KT 36/18 A30 RMK A01 T03560178  RH  035%=      5-min Rain = 0
KCO2 061759Z 20011KT 36/18 A30 RMK A01 T03550177  RH  035%=      5-min Rain = 0
KCO2 061800Z 20007KT 35/18 A30 RMK A01 T03510176  RH  036%=      5-min Rain = 0
KCO2 061801Z 19006G12KT 35/18 A30 RMK A01 T03480177  RH  036%=      5-min Rain = 0
KCO2 061802Z 18012G17KT 35/18 A2999 RMK A01 T03510177  RH  036%=      5-min Rain = 0
KCO2 061803Z 21011G17KT 36/18 A30 RMK A01 T03560176  RH  035%=      5-min Rain = 0
KCO2 061804Z 23008KT 35/17 A2999 RMK A01 T03540174  RH  035%=      5-min Rain = 0
KCO2 061805Z 19012KT 36/18 A2999 RMK A01 T03550175  RH  035%=      5-min Rain = 0
KCO2 061806Z 19014KT 36/18 A2999 RMK A01 T03620175  RH  033%=      5-min Rain = 0
KCO2 061807Z 20009G14KT 36/18 A2999 RMK A01 T03640175  RH  033%=      5-min Rain = 0
KCO2 061808Z 19009KT 37/18 A2999 RMK A01 T03650175  RH  033%=      5-min Rain = 0
KCO2 061809Z 19009KT 37/17 A2999 RMK A01 T03650173  RH  032%=      5-min Rain = 0
KCO2 061810Z 19012KT 37/18 A2999 RMK A01 T03650175  RH  033%=      5-min Rain = 0
KCO2 061811Z 20013KT 37/18 A2999 RMK A01 T03650176  RH  033%=      5-min Rain = 0
KCO2 061812Z 21010KT 36/18 A2999 RMK A01 T03630175  RH  033%=      5-min Rain = 0
KCO2 061813Z 20008KT 36/18 A2999 RMK A01 T03620175  RH  033%=      5-min Rain = 0
KCO2 061814Z 21011G20KT 37/17 A2999 RMK A01 T03650173  RH  032%=      5-min Rain = 0
KCO2 061815Z 20014G20KT 37/16 A2999 RMK A01 T03660164  RH  030%=      5-min Rain = 0
KCO2 061816Z 21010KT 36/16 A2999 RMK A01 T03640164  RH  031%=      5-min Rain = 0
KCO2 061817Z 22010KT 36/17 A2999 RMK A01 T03620166  RH  031%=      5-min Rain = 0
KCO2 061818Z 20007KT 36/17 A2999 RMK A01 T03610169  RH  032%=      5-min Rain = 0
KCO2 061819Z 18009G16KT 37/17 A2999 RMK A01 T03660171  RH  032%=      5-min Rain = 0
KCO2 061820Z 19011KT 37/17 A2999 RMK A01 T03720170  RH  030%=      5-min Rain = 0
KCO2 061821Z 18008KT 37/17 A2999 RMK A01 T03700168  RH  030%=      5-min Rain = 0
KCO2 061822Z 18007KT 37/17 A2999 RMK A01 T03680171  RH  031%=      5-min Rain = 0
KCO2 061823Z 19010KT 37/17 A2999 RMK A01 T03710171  RH  031%=      5-min Rain = 0
KCO2 061824Z 22011KT 37/17 A2999 RMK A01 T03700170  RH  031%=      5-min Rain = 0
KCO2 061825Z 21010KT 37/17 A2999 RMK A01 T03670169  RH  031%=      5-min Rain = 0
KCO2 061826Z 21010KT 37/17 A2998 RMK A01 T03660167  RH  031%=      5-min Rain = 0
KCO2 061827Z 18015KT 37/16 A2998 RMK A01 T03670161  RH  030%=      5-min Rain = 0
KCO2 061828Z 19017KT 37/16 A2998 RMK A01 T03690163  RH  030%=      5-min Rain = 0
KCO2 061829Z 18013KT 37/16 A2998 RMK A01 T03700163  RH  030%=      5-min Rain = 0
KCO2 061830Z 18012G17KT 37/17 A2998 RMK A01 T03710167  RH  030%=      5-min Rain = 0
KCO2 061831Z 17013KT 37/17 A2998 RMK A01 T03720166  RH  030%=      5-min Rain = 0
KCO2 061832Z 17012KT 37/17 A2998 RMK A01 T03710166  RH  030%=      5-min Rain = 0
KCO2 061833Z 16012KT 37/17 A2998 RMK A01 T03730165  RH  029%=      5-min Rain = 0
KCO2 061834Z 17011KT 38/17 A2998 RMK A01 T03760167  RH  029%=      5-min Rain = 0
KCO2 061835Z 21010KT 38/17 A2998 RMK A01 T03760170  RH  030%=      5-min Rain = 0
KCO2 061836Z 21010KT 38/17 A2998 RMK A01 T03760171  RH  030%=      5-min Rain = 0
KCO2 061837Z 21012KT 38/17 A2998 RMK A01 T03750171  RH  030%=      5-min Rain = 0
KCO2 061838Z 20010KT 38/17 A2998 RMK A01 T03750169  RH  030%=      5-min Rain = 0
KCO2 061839Z 20014G19KT 38/17 A2998 RMK A01 T03760170  RH  030%=      5-min Rain = 0
KCO2 061840Z 21009KT 37/17 A2998 RMK A01 T03740169  RH  030%=      5-min Rain = 0
KCO2 061841Z 18009KT 37/17 A2998 RMK A01 T03730169  RH  030%=      5-min Rain = 0
KCO2 061842Z 18012KT 37/17 A2998 RMK A01 T03710167  RH  030%=      5-min Rain = 0
KCO2 061843Z 22012G20KT 38/17 A2998 RMK A01 T03750168  RH  030%=      5-min Rain = 0
KCO2 061844Z 21018KT 38/16 A2998 RMK A01 T03790163  RH  028%=      5-min Rain = 0
KCO2 061845Z 21016KT 37/16 A2998 RMK A01 T03740160  RH  028%=      5-min Rain = 0
KCO2 061846Z 21012KT 37/16 A2998 RMK A01 T03680159  RH  029%=      5-min Rain = 0
KCO2 061847Z 20012KT 36/16 A2998 RMK A01 T03640161  RH  030%=      5-min Rain = 0
KCO2 061848Z 19011KT 36/16 A2998 RMK A01 T03640161  RH  030%=      5-min Rain = 0
KCO2 061849Z 21007KT 36/16 A2998 RMK A01 T03630162  RH  030%=      5-min Rain = 0
KCO2 061850Z 21011KT 36/16 A2998 RMK A01 T03630162  RH  031%=      5-min Rain = 0
KCO2 061851Z 19017KT 36/16 A2998 RMK A01 T03620163  RH  031%=      5-min Rain = 0
KCO2 061852Z 19015KT 36/16 A2998 RMK A01 T03610161  RH  031%=      5-min Rain = 0
KCO2 061853Z 20013KT 36/16 A2998 RMK A01 T03600161  RH  031%=      5-min Rain = 0
KCO2 061854Z 20011KT 36/16 A2998 RMK A01 T03600161  RH  031%=      5-min Rain = 0
KCO2 061855Z 19014KT 36/16 A2998 RMK A01 T03610160  RH  030%=      5-min Rain = 0
KCO2 061856Z 19013KT 36/16 A2998 RMK A01 T03600159  RH  030%=      5-min Rain = 0
KCO2 061857Z 19010KT 36/16 A2998 RMK A01 T03590158  RH  030%=      5-min Rain = 0
KCO2 061858Z 19010KT 36/16 A2998 RMK A01 T03580158  RH  031%=      5-min Rain = 0
KCO2 061859Z 18009KT 36/16 A2998 RMK A01 T03580161  RH  031%=      5-min Rain = 0
KCO2 061900Z 19007KT 36/16 A2998 RMK A01 T03590162  RH  031%=      5-min Rain = 0
KCO2 061901Z 18006KT 36/16 A2998 RMK A01 T03590163  RH  031%=      5-min Rain = 0
KCO2 061902Z 18010KT 36/16 A2998 RMK A01 T03590162  RH  031%=      5-min Rain = 0
KCO2 061903Z 19012G17KT 36/16 A2997 RMK A01 T03600162  RH  031%=      5-min Rain = 0
KCO2 061904Z 20014KT 36/16 A2998 RMK A01 T03620160  RH  030%=      5-min Rain = 0
KCO2 061905Z 20011KT 36/16 A2997 RMK A01 T03620160  RH  030%=      5-min Rain = 0
KCO2 061906Z 19010KT 36/16 A2997 RMK A01 T03600160  RH  030%=      5-min Rain = 0
KCO2 061907Z 19012KT 36/16 A2997 RMK A01 T03600158  RH  030%=      5-min Rain = 0
KCO2 061908Z 18013KT 36/15 A2997 RMK A01 T03600151  RH  029%=      5-min Rain = 0
KCO2 061909Z 17010KT 36/15 A2997 RMK A01 T03600151  RH  029%=      5-min Rain = 0
KCO2 061910Z 17011G16KT 36/15 A2997 RMK A01 T03600152  RH  029%=      5-min Rain = 0
KCO2 061911Z 16015KT 36/15 A2997 RMK A01 T03610153  RH  029%=      5-min Rain = 0
KCO2 061912Z 18014KT 36/16 A2997 RMK A01 T03610155  RH  029%=      5-min Rain = 0
KCO2 061913Z 17013KT 36/16 A2997 RMK A01 T03600155  RH  030%=      5-min Rain = 0
KCO2 061914Z 17013KT 36/15 A2997 RMK A01 T03610154  RH  029%=      5-min Rain = 0
KCO2 061915Z 16014KT 36/16 A2997 RMK A01 T03590156  RH  030%=      5-min Rain = 0
KCO2 061916Z 18013KT 36/16 A2997 RMK A01 T03580158  RH  030%=      5-min Rain = 0
KCO2 061917Z 18012KT 36/16 A2997 RMK A01 T03570158  RH  031%=      5-min Rain = 0
KCO2 061918Z 17011KT 36/16 A2997 RMK A01 T03570156  RH  030%=      5-min Rain = 0
KCO2 061919Z 16010KT 36/16 A2997 RMK A01 T03580155  RH  030%=      5-min Rain = 0
KCO2 061920Z 16012KT 36/16 A2997 RMK A01 T03580155  RH  030%=      5-min Rain = 0
KCO2 061921Z 17013KT 36/15 A2997 RMK A01 T03590154  RH  030%=      5-min Rain = 0
KCO2 061922Z 17013KT 36/15 A2997 RMK A01 T03580154  RH  030%=      5-min Rain = 0
KCO2 061923Z 17011KT 36/16 A2997 RMK A01 T03580155  RH  030%=      5-min Rain = 0
KCO2 061924Z 16010KT 36/16 A2997 RMK A01 T03590155  RH  030%=      5-min Rain = 0
KCO2 061925Z 17011KT 36/16 A2997 RMK A01 T03590155  RH  030%=      5-min Rain = 0
KCO2 061926Z 18011KT 36/16 A2997 RMK A01 T03600156  RH  030%=      5-min Rain = 0
KCO2 061927Z 19009KT 36/16 A2997 RMK A01 T03600156  RH  030%=      5-min Rain = 0
KCO2 061928Z 20008KT 36/16 A2997 RMK A01 T03600158  RH  030%=      5-min Rain = 0
KCO2 061929Z 20008KT 36/16 A2997 RMK A01 T03610159  RH  030%=      5-min Rain = 0
KCO2 061930Z 20008KT 36/16 A2997 RMK A01 T03610158  RH  030%=      5-min Rain = 0
KCO2 061931Z 19008KT 36/16 A2997 RMK A01 T03600157  RH  030%=      5-min Rain = 0
KCO2 061932Z 18010KT 36/16 A2997 RMK A01 T03590157  RH  030%=      5-min Rain = 0
KCO2 061933Z 18010KT 36/16 A2997 RMK A01 T03600157  RH  030%=      5-min Rain = 0
KCO2 061934Z 18010KT 36/16 A2997 RMK A01 T03600157  RH  030%=      5-min Rain = 0
KCO2 061935Z 20010KT 36/16 A2997 RMK A01 T03600155  RH  030%=      5-min Rain = 0
KCO2 061936Z 21011KT 36/15 A2997 RMK A01 T03600151  RH  029%=      5-min Rain = 0
KCO2 061937Z 20010KT 36/15 A2996 RMK A01 T03610150  RH  028%=      5-min Rain = 0
KCO2 061938Z 20008KT 37/15 A2996 RMK A01 T03650153  RH  028%=      5-min Rain = 0
KCO2 061939Z 17010KT 37/16 A2996 RMK A01 T03720156  RH  028%=      5-min Rain = 0
KCO2 061940Z 17010KT 38/16 A2996 RMK A01 T03770155  RH  027%=      5-min Rain = 0
KCO2 061941Z 16010KT 38/16 A2996 RMK A01 T03810155  RH  026%=      5-min Rain = 0
KCO2 061942Z 15012KT 39/16 A2996 RMK A01 T03860156  RH  026%=      5-min Rain = 0
KCO2 061943Z 16012KT 39/15 A2996 RMK A01 T03860154  RH  025%=      5-min Rain = 0
KCO2 061944Z 16011KT 39/15 A2996 RMK A01 T03860154  RH  026%=      5-min Rain = 0
KCO2 061945Z 17013KT 39/16 A2996 RMK A01 T03850155  RH  026%=      5-min Rain = 0
KCO2 061946Z 19010KT 38/15 A2996 RMK A01 T03830154  RH  026%=      5-min Rain = 0
KCO2 061947Z 18008KT 38/16 A2996 RMK A01 T03800155  RH  026%=      5-min Rain = 0
KCO2 061948Z 15009G15KT 38/16 A2996 RMK A01 T03820157  RH  027%=      5-min Rain = 0
KCO2 061949Z 16010KT 39/16 A2996 RMK A01 T03870158  RH  026%=      5-min Rain = 0
KCO2 061950Z 16011KT 39/16 A2996 RMK A01 T03890156  RH  025%=      5-min Rain = 0
KCO2 061951Z 17013KT 39/16 A2996 RMK A01 T03880155  RH  025%=      5-min Rain = 0
KCO2 061952Z 17011KT 39/16 A2996 RMK A01 T03870155  RH  026%=      5-min Rain = 0
KCO2 061953Z 17009KT 39/16 A2996 RMK A01 T03880155  RH  026%=      5-min Rain = 0
KCO2 061954Z 15008KT 39/16 A2996 RMK A01 T03880157  RH  026%=      5-min Rain = 0
KCO2 061955Z 19010G16KT 39/16 A2995 RMK A01 T03900155  RH  025%=      5-min Rain = 0
KCO2 061956Z 18011KT 39/15 A2996 RMK A01 T03900151  RH  025%=      5-min Rain = 0
KCO2 061957Z 21012KT 39/16 A2996 RMK A01 T03910155  RH  025%=      5-min Rain = 0
KCO2 061958Z 21012KT 39/15 A2996 RMK A01 T03930153  RH  024%=      5-min Rain = 0
KCO2 061959Z 19010KT 39/15 A2996 RMK A01 T03880152  RH  025%=      5-min Rain = 0
KCO2 062000Z 19012KT 39/15 A2995 RMK A01 T03850152  RH  025%=      5-min Rain = 0
KCO2 062001Z 19012KT 38/15 A2995 RMK A01 T03820151  RH  025%=      5-min Rain = 0
KCO2 062002Z 17011KT 38/15 A2995 RMK A01 T03800151  RH  026%=      5-min Rain = 0
KCO2 062003Z 14011KT 38/15 A2996 RMK A01 T03800149  RH  026%=      5-min Rain = 0
KCO2 062004Z 14010KT 38/15 A2995 RMK A01 T03770149  RH  026%=      5-min Rain = 0
KCO2 062005Z 15015KT 38/15 A2995 RMK A01 T03760149  RH  026%=      5-min Rain = 0
KCO2 062006Z 15014KT 38/15 A2995 RMK A01 T03750148  RH  026%=      5-min Rain = 0
KCO2 062007Z 16016KT 37/15 A2995 RMK A01 T03740149  RH  026%=      5-min Rain = 0
KCO2 062008Z 15015KT 37/15 A2995 RMK A01 T03730149  RH  026%=      5-min Rain = 0
KCO2 062009Z 15018KT 37/15 A2995 RMK A01 T03730150  RH  027%=      5-min Rain = 0
KCO2 062010Z 18013KT 37/15 A2995 RMK A01 T03730150  RH  027%=      5-min Rain = 0
KCO2 062011Z 18014G19KT 37/15 A2995 RMK A01 T03730151  RH  027%=      5-min Rain = 0
KCO2 062012Z 18013KT 37/15 A2995 RMK A01 T03730149  RH  026%=      5-min Rain = 0
KCO2 062013Z 18010KT 37/15 A2995 RMK A01 T03720148  RH  026%=      5-min Rain = 0
KCO2 062014Z 19008KT 37/15 A2995 RMK A01 T03720149  RH  027%=      5-min Rain = 0
KCO2 062015Z 19010KT 37/15 A2995 RMK A01 T03730148  RH  026%=      5-min Rain = 0
KCO2 062016Z 19013KT 37/15 A2995 RMK A01 T03740147  RH  026%=      5-min Rain = 0
KCO2 062017Z 21012KT 37/15 A2995 RMK A01 T03730146  RH  026%=      5-min Rain = 0
KCO2 062018Z 21013KT 37/14 A2995 RMK A01 T03730144  RH  026%=      5-min Rain = 0
KCO2 062019Z 21011KT 37/14 A2995 RMK A01 T03730140  RH  025%=      5-min Rain = 0
KCO2 062020Z 20008KT 37/14 A2995 RMK A01 T03730140  RH  025%=      5-min Rain = 0
KCO2 062021Z 17006G11KT 37/15 A2995 RMK A01 T03730145  RH  026%=      5-min Rain = 0
KCO2 062022Z 17009KT 38/15 A2995 RMK A01 T03760148  RH  026%=      5-min Rain = 0
KCO2 062023Z 17008KT 38/15 A2995 RMK A01 T03760147  RH  026%=      5-min Rain = 0
KCO2 062024Z 18007KT 38/15 A2995 RMK A01 T03750149  RH  026%=      5-min Rain = 0
KCO2 062025Z 15008G15KT 38/15 A2995 RMK A01 T03750149  RH  026%=      5-min Rain = 0
KCO2 062026Z 15014KT 38/15 A2995 RMK A01 T03770148  RH  026%=      5-min Rain = 0
KCO2 062027Z 16009KT 38/15 A2995 RMK A01 T03780149  RH  026%=      5-min Rain = 0
KCO2 062028Z 16015KT 38/15 A2995 RMK A01 T03800149  RH  026%=      5-min Rain = 0
KCO2 062029Z 16014KT 38/15 A2995 RMK A01 T03800148  RH  025%=      5-min Rain = 0
KCO2 062030Z 17014KT 38/15 A2995 RMK A01 T03800147  RH  025%=      5-min Rain = 0
KCO2 062031Z 17012KT 38/15 A2995 RMK A01 T03810147  RH  025%=      5-min Rain = 0
KCO2 062032Z 18013KT 38/15 A2995 RMK A01 T03800146  RH  025%=      5-min Rain = 0
KCO2 062033Z 19014KT 38/15 A2995 RMK A01 T03810147  RH  025%=      5-min Rain = 0
KCO2 062034Z 18014KT 39/15 A2995 RMK A01 T03850148  RH  025%=      5-min Rain = 0
KCO2 062035Z 18012G17KT 39/15 A2995 RMK A01 T03900150  RH  024%=      5-min Rain = 0
KCO2 062036Z 17010KT 39/15 A2995 RMK A01 T03920149  RH  024%=      5-min Rain = 0
KCO2 062037Z 17009KT 39/15 A2994 RMK A01 T03910148  RH  024%=      5-min Rain = 0
KCO2 062038Z 16013KT 39/15 A2994 RMK A01 T03910148  RH  024%=      5-min Rain = 0
KCO2 062039Z 16014KT 39/15 A2994 RMK A01 T03940147  RH  023%=      5-min Rain = 0
KCO2 062040Z 18012KT 39/15 A2994 RMK A01 T03930146  RH  023%=      5-min Rain = 0
KCO2 062041Z 16015KT 40/14 A2994 RMK A01 T03970144  RH  023%=      5-min Rain = 0
KCO2 062042Z 16012G17KT 40/14 A2994 RMK A01 T03990142  RH  022%=      5-min Rain = 0
KCO2 062043Z 16016KT 40/14 A2994 RMK A01 T03960143  RH  023%=      5-min Rain = 0
KCO2 062044Z 18012KT 40/14 A2994 RMK A01 T03980144  RH  023%=      5-min Rain = 0
KCO2 062045Z 18014KT 40/15 A2994 RMK A01 T04000145  RH  022%=      5-min Rain = 0
KCO2 062046Z 18012KT 40/14 A2994 RMK A01 T03990144  RH  022%=      5-min Rain = 0
KCO2 062047Z 20014KT 40/15 A2994 RMK A01 T03990145  RH  022%=      5-min Rain = 0
KCO2 062048Z 20012KT 39/14 A2994 RMK A01 T03940143  RH  023%=      5-min Rain = 0
KCO2 062049Z 19012KT 39/15 A2994 RMK A01 T03930146  RH  023%=      5-min Rain = 0
KCO2 062050Z 18012KT 40/15 A2994 RMK A01 T03960145  RH  023%=      5-min Rain = 0
KCO2 062051Z 19014KT 40/14 A2994 RMK A01 T03950144  RH  023%=      5-min Rain = 0
KCO2 062052Z 18015KT 40/14 A2994 RMK A01 T03960138  RH  022%=      5-min Rain = 0
KCO2 062053Z 19014KT 40/14 A2994 RMK A01 T03970139  RH  022%=      5-min Rain = 0
KCO2 062054Z 18013KT 40/14 A2994 RMK A01 T03980140  RH  022%=      5-min Rain = 0
KCO2 062055Z 21014KT 40/14 A2994 RMK A01 T04000142  RH  022%=      5-min Rain = 0
KCO2 062056Z 22014KT 40/14 A2994 RMK A01 T03970142  RH  022%=      5-min Rain = 0
KCO2 062057Z 21013KT 39/14 A2994 RMK A01 T03930143  RH  023%=      5-min Rain = 0
KCO2 062058Z 20010KT 39/14 A2994 RMK A01 T03920140  RH  023%=      5-min Rain = 0
KCO2 062059Z 20012G19KT 39/14 A2994 RMK A01 T03910142  RH  023%=      5-min Rain = 0
KCO2 062100Z 19014KT 39/14 A2994 RMK A01 T03910142  RH  023%=      5-min Rain = 0
KCO2 062101Z 19014KT 39/14 A2994 RMK A01 T03890142  RH  023%=      5-min Rain = 0
KCO2 062102Z 18011G17KT 39/14 A2994 RMK A01 T03870144  RH  024%=      5-min Rain = 0
KCO2 062103Z 17017KT 39/15 A2994 RMK A01 T03890145  RH  024%=      5-min Rain = 0
KCO2 062104Z 18010KT 38/14 A2994 RMK A01 T03830144  RH  024%=      5-min Rain = 0
KCO2 062105Z 19013KT 38/15 A2994 RMK A01 T03800145  RH  025%=      5-min Rain = 0
KCO2 062106Z 18017G25KT 38/15 A2994 RMK A01 T03790145  RH  025%=      5-min Rain = 0
KCO2 062107Z 18015KT 38/14 A2994 RMK A01 T03770144  RH  025%=      5-min Rain = 0
KCO2 062108Z 16015KT 38/14 A2994 RMK A01 T03750144  RH  025%=      5-min Rain = 0
KCO2 062109Z 15013KT 37/14 A2994 RMK A01 T03740143  RH  025%=      5-min Rain = 0
KCO2 062110Z 14008KT 38/14 A2994 RMK A01 T03750143  RH  025%=      5-min Rain = 0
KCO2 062111Z 14010KT 38/14 A2994 RMK A01 T03750144  RH  025%=      5-min Rain = 0
KCO2 062112Z 15011KT 38/14 A2994 RMK A01 T03760144  RH  025%=      5-min Rain = 0
KCO2 062113Z 14015KT 38/14 A2994 RMK A01 T03760142  RH  025%=      5-min Rain = 0
KCO2 062114Z 15014KT 38/14 A2994 RMK A01 T03760140  RH  025%=      5-min Rain = 0
KCO2 062115Z 15015G20KT 38/14 A2993 RMK A01 T03760138  RH  024%=      5-min Rain = 0
KCO2 062116Z 15015KT 38/14 A2993 RMK A01 T03760138  RH  024%=      5-min Rain = 0
KCO2 062117Z 16014KT 38/14 A2993 RMK A01 T03760139  RH  024%=      5-min Rain = 0
KCO2 062118Z 16013KT 38/14 A2993 RMK A01 T03760141  RH  025%=      5-min Rain = 0
KCO2 062119Z 16014KT 38/14 A2993 RMK A01 T03760143  RH  025%=      5-min Rain = 0
KCO2 062120Z 16011G17KT 38/15 A2993 RMK A01 T03780146  RH  025%=      5-min Rain = 0
KCO2 062121Z 17017KT 38/15 A2993 RMK A01 T03810146  RH  025%=      5-min Rain = 0
KCO2 062122Z 17014KT 38/15 A2993 RMK A01 T03830147  RH  025%=      5-min Rain = 0
KCO2 062123Z 18010KT 39/15 A2993 RMK A01 T03870150  RH  025%=      5-min Rain = 0
KCO2 062124Z 17011KT 39/15 A2993 RMK A01 T03910148  RH  024%=      5-min Rain = 0
KCO2 062125Z 15011KT 39/15 A2993 RMK A01 T03930149  RH  024%=      5-min Rain = 0
KCO2 062126Z 16012KT 40/15 A2993 RMK A01 T03950148  RH  023%=      5-min Rain = 0
KCO2 062127Z 16015KT 40/15 A2993 RMK A01 T03960147  RH  023%=      5-min Rain = 0
KCO2 062128Z 15014KT 40/15 A2993 RMK A01 T03970147  RH  023%=      5-min Rain = 0
KCO2 062129Z 15014KT 40/15 A2993 RMK A01 T03970148  RH  023%=      5-min Rain = 0
KCO2 062130Z 16015KT 40/15 A2993 RMK A01 T03990147  RH  023%=      5-min Rain = 0
KCO2 062131Z 16015KT 40/15 A2993 RMK A01 T04000147  RH  023%=      5-min Rain = 0
KCO2 062132Z 15014KT 40/15 A2993 RMK A01 T03990147  RH  023%=      5-min Rain = 0
KCO2 062133Z 15010KT 40/15 A2993 RMK A01 T03980147  RH  023%=      5-min Rain = 0
KCO2 062134Z 14012G17KT 40/15 A2993 RMK A01 T03980147  RH  023%=      5-min Rain = 0
KCO2 062135Z 14014KT 40/15 A2993 RMK A01 T04010148  RH  023%=      5-min Rain = 0
KCO2 062136Z 15016KT 40/15 A2993 RMK A01 T04030147  RH  022%=      5-min Rain = 0
KCO2 062137Z 15013KT 40/15 A2993 RMK A01 T03980147  RH  023%=      5-min Rain = 0
KCO2 062138Z 15013G19KT 40/15 A2993 RMK A01 T03960147  RH  023%=      5-min Rain = 0
KCO2 062139Z 15015KT 40/15 A2993 RMK A01 T03960146  RH  023%=      5-min Rain = 0
KCO2 062140Z 14012KT 40/15 A2992 RMK A01 T03960145  RH  023%=      5-min Rain = 0
KCO2 062141Z 14013G21KT 39/14 A2992 RMK A01 T03930144  RH  023%=      5-min Rain = 0
KCO2 062142Z 15015G22KT 39/15 A2992 RMK A01 T03940146  RH  023%=      5-min Rain = 0
KCO2 062143Z 15017KT 40/15 A2992 RMK A01 T03980146  RH  023%=      5-min Rain = 0
KCO2 062144Z 15013KT 40/15 A2992 RMK A01 T03970145  RH  023%=      5-min Rain = 0
KCO2 062145Z 14011KT 40/15 A2992 RMK A01 T03950147  RH  023%=      5-min Rain = 0
KCO2 062146Z 14014KT 40/15 A2992 RMK A01 T03960147  RH  023%=      5-min Rain = 0
KCO2 062147Z 15015KT 40/15 A2992 RMK A01 T03970147  RH  023%=      5-min Rain = 0
KCO2 062148Z 16017KT 40/15 A2992 RMK A01 T03990148  RH  023%=      5-min Rain = 0
KCO2 062149Z 17015KT 40/15 A2992 RMK A01 T03990146  RH  023%=      5-min Rain = 0
KCO2 062150Z 16015KT 40/15 A2992 RMK A01 T03970147  RH  023%=      5-min Rain = 0
KCO2 062151Z 17015G21KT 40/15 A2992 RMK A01 T03970146  RH  023%=      5-min Rain = 0
KCO2 062152Z 17014G19KT 40/15 A2992 RMK A01 T03950145  RH  023%=      5-min Rain = 0
KCO2 062153Z 18014KT 39/15 A2992 RMK A01 T03940145  RH  023%=      5-min Rain = 0
KCO2 062154Z 17015KT 39/15 A2992 RMK A01 T03940146  RH  023%=      5-min Rain = 0
KCO2 062155Z 15010G18KT 40/15 A2992 RMK A01 T03970147  RH  023%=      5-min Rain = 0
KCO2 062156Z 15014KT 40/15 A2992 RMK A01 T03990145  RH  022%=      5-min Rain = 0
KCO2 062157Z 15017G24KT 40/15 A2992 RMK A01 T03980145  RH  023%=      5-min Rain = 0
KCO2 062158Z 14016KT 40/14 A2992 RMK A01 T03970143  RH  022%=      5-min Rain = 0
KCO2 062159Z 16016KT 40/14 A2992 RMK A01 T03980141  RH  022%=      5-min Rain = 0
KCO2 062200Z 17014KT 40/14 A2992 RMK A01 T03970141  RH  022%=      5-min Rain = 0
KCO2 062201Z 18010KT 40/14 A2992 RMK A01 T03960142  RH  022%=      5-min Rain = 0
KCO2 062202Z 17011KT 40/14 A2992 RMK A01 T03960142  RH  022%=      5-min Rain = 0
KCO2 062203Z 16008KT 40/14 A2992 RMK A01 T03980143  RH  022%=      5-min Rain = 0
KCO2 062204Z 18012KT 40/14 A2992 RMK A01 T03990143  RH  022%=      5-min Rain = 0
KCO2 062205Z 19013KT 40/14 A2992 RMK A01 T04000142  RH  022%=      5-min Rain = 0
KCO2 062206Z 18017G24KT 40/14 A2991 RMK A01 T03970142  RH  022%=      5-min Rain = 0
KCO2 062207Z 15018G25KT 40/14 A2992 RMK A01 T03960141  RH  022%=      5-min Rain = 0
KCO2 062208Z 14015KT 39/14 A2992 RMK A01 T03940141  RH  022%=      5-min Rain = 0
KCO2 062209Z 16015KT 39/14 A2992 RMK A01 T03930141  RH  023%=      5-min Rain = 0
KCO2 062210Z 16017KT 39/14 A2992 RMK A01 T03930141  RH  023%=      5-min Rain = 0
KCO2 062211Z 17016KT 39/14 A2992 RMK A01 T03910140  RH  023%=      5-min Rain = 0
KCO2 062212Z 16013KT 39/14 A2992 RMK A01 T03910140  RH  023%=      5-min Rain = 0
KCO2 062213Z 16012KT 39/14 A2992 RMK A01 T03910140  RH  023%=      5-min Rain = 0
KCO2 062214Z 16014KT 39/14 A2992 RMK A01 T03940139  RH  022%=      5-min Rain = 0
KCO2 062215Z 16016KT 40/14 A2992 RMK A01 T03950140  RH  022%=      5-min Rain = 0
KCO2 062216Z 16016KT 39/14 A2992 RMK A01 T03940138  RH  022%=      5-min Rain = 0
KCO2 062217Z 15015G20KT 39/14 A2992 RMK A01 T03930140  RH  022%=      5-min Rain = 0
KCO2 062218Z 14016KT 39/14 A2992 RMK A01 T03940142  RH  023%=      5-min Rain = 0
KCO2 062219Z 14017KT 39/14 A2992 RMK A01 T03930143  RH  023%=      5-min Rain = 0
KCO2 062220Z 14015KT 39/14 A2992 RMK A01 T03920143  RH  023%=      5-min Rain = 0
KCO2 062221Z 14013KT 39/15 A2992 RMK A01 T03910145  RH  023%=      5-min Rain = 0
KCO2 062222Z 15011KT 39/14 A2991 RMK A01 T03900143  RH  023%=      5-min Rain = 0
KCO2 062223Z 14010KT 39/15 A2991 RMK A01 T03890146  RH  024%=      5-min Rain = 0
KCO2 062224Z 14012KT 39/15 A2991 RMK A01 T03910148  RH  024%=      5-min Rain = 0
KCO2 062225Z 13011KT 39/15 A2991 RMK A01 T03920147  RH  024%=      5-min Rain = 0
KCO2 062226Z 15016KT 39/15 A2991 RMK A01 T03900145  RH  024%=      5-min Rain = 0
KCO2 062227Z 17013KT 39/14 A2991 RMK A01 T03900140  RH  023%=      5-min Rain = 0
KCO2 062228Z 18015KT 39/14 A2991 RMK A01 T03890140  RH  023%=      5-min Rain = 0
KCO2 062229Z 17013KT 39/14 A2991 RMK A01 T03900139  RH  023%=      5-min Rain = 0
KCO2 062230Z 17013G18KT 39/14 A2991 RMK A01 T03910139  RH  023%=      5-min Rain = 0
KCO2 062231Z 17014KT 39/14 A2991 RMK A01 T03910139  RH  023%=      5-min Rain = 0
KCO2 062232Z 16012KT 39/14 A2991 RMK A01 T03900140  RH  023%=      5-min Rain = 0
KCO2 062233Z 17015KT 39/14 A2991 RMK A01 T03910140  RH  023%=      5-min Rain = 0
KCO2 062234Z 17012KT 39/14 A2991 RMK A01 T03900138  RH  023%=      5-min Rain = 0
KCO2 062235Z 16010KT 39/14 A2991 RMK A01 T03880141  RH  023%=      5-min Rain = 0
KCO2 062236Z 15010KT 39/14 A2991 RMK A01 T03880141  RH  023%=      5-min Rain = 0
KCO2 062237Z 15008KT 39/14 A2991 RMK A01 T03880142  RH  023%=      5-min Rain = 0
KCO2 062238Z 17008KT 39/14 A2991 RMK A01 T03890143  RH  023%=      5-min Rain = 0
KCO2 062239Z 18011KT 39/14 A2991 RMK A01 T03920144  RH  023%=      5-min Rain = 0
KCO2 062240Z 16010KT 39/14 A2991 RMK A01 T03940144  RH  023%=      5-min Rain = 0
KCO2 062241Z 14015KT 40/15 A2991 RMK A01 T03970145  RH  023%=      5-min Rain = 0
KCO2 062242Z 15013KT 40/15 A2991 RMK A01 T03950145  RH  023%=      5-min Rain = 0
KCO2 062243Z 13014KT 39/15 A2991 RMK A01 T03930145  RH  023%=      5-min Rain = 0
KCO2 062244Z 14016G21KT 39/14 A2991 RMK A01 T03920144  RH  023%=      5-min Rain = 0
KCO2 062245Z 16016KT 39/14 A2991 RMK A01 T03920144  RH  023%=      5-min Rain = 0
KCO2 062246Z 16011KT 39/14 A2991 RMK A01 T03920144  RH  023%=      5-min Rain = 0
KCO2 062247Z 16012KT 39/14 A2991 RMK A01 T03940143  RH  023%=      5-min Rain = 0
KCO2 062248Z 17009KT 39/14 A2991 RMK A01 T03930143  RH  023%=      5-min Rain = 0
KCO2 062249Z 18009KT 39/15 A2991 RMK A01 T03930145  RH  023%=      5-min Rain = 0
KCO2 062250Z 17009KT 39/14 A2991 RMK A01 T03940144  RH  023%=      5-min Rain = 0
KCO2 062251Z 18011KT 39/14 A2991 RMK A01 T03920143  RH  023%=      5-min Rain = 0
KCO2 062252Z 17018G23KT 39/15 A2991 RMK A01 T03910145  RH  023%=      5-min Rain = 0
KCO2 062253Z 16016KT 39/14 A2991 RMK A01 T03900144  RH  024%=      5-min Rain = 0
KCO2 062254Z 17016KT 39/15 A2991 RMK A01 T03890145  RH  024%=      5-min Rain = 0
KCO2 062255Z 15017KT 39/15 A2991 RMK A01 T03890145  RH  024%=      5-min Rain = 0
KCO2 062256Z 16013KT 39/14 A2991 RMK A01 T03870144  RH  024%=      5-min Rain = 0
KCO2 062257Z 16009KT 39/15 A2991 RMK A01 T03870145  RH  024%=      5-min Rain = 0
KCO2 062258Z 15013G20KT 39/15 A2991 RMK A01 T03880145  RH  024%=      5-min Rain = 0
KCO2 062259Z 14015KT 39/14 A2991 RMK A01 T03880144  RH  024%=      5-min Rain = 0
KCO2 062300Z 15013KT 39/14 A2991 RMK A01 T03860144  RH  024%=      5-min Rain = 0
KCO2 062301Z 15015KT 39/15 A2991 RMK A01 T03860145  RH  024%=      5-min Rain = 0
KCO2 062302Z 15014KT 39/15 A2991 RMK A01 T03860145  RH  024%=      5-min Rain = 0
KCO2 062303Z 14015KT 39/15 A2991 RMK A01 T03860147  RH  024%=      5-min Rain = 0
KCO2 062304Z 15016KT 39/15 A2991 RMK A01 T03860147  RH  024%=      5-min Rain = 0
KCO2 062305Z 15019KT 39/15 A2991 RMK A01 T03860147  RH  024%=      5-min Rain = 0
KCO2 062306Z 14013KT 39/15 A2991 RMK A01 T03850147  RH  025%=      5-min Rain = 0
KCO2 062307Z 15012KT 38/15 A2991 RMK A01 T03830146  RH  025%=      5-min Rain = 0
KCO2 062308Z 15010KT 38/15 A2991 RMK A01 T03830146  RH  025%=      5-min Rain = 0
KCO2 062309Z 15011KT 38/15 A2991 RMK A01 T03840145  RH  024%=      5-min Rain = 0
KCO2 062310Z 16011KT 39/15 A2991 RMK A01 T03860145  RH  024%=      5-min Rain = 0
KCO2 062311Z 16012G18KT 39/15 A2991 RMK A01 T03880145  RH  024%=      5-min Rain = 0
KCO2 062312Z 16014KT 39/15 A2991 RMK A01 T03890145  RH  024%=      5-min Rain = 0
KCO2 062313Z 16016KT 39/15 A2991 RMK A01 T03880145  RH  024%=      5-min Rain = 0
KCO2 062314Z 16015KT 39/14 A2991 RMK A01 T03870144  RH  024%=      5-min Rain = 0
KCO2 062315Z 16013KT 39/14 A2991 RMK A01 T03860143  RH  024%=      5-min Rain = 0
KCO2 062316Z 16014KT 39/15 A2991 RMK A01 T03850145  RH  024%=      5-min Rain = 0
KCO2 062317Z 16014KT 38/15 A2991 RMK A01 T03840145  RH  024%=      5-min Rain = 0
KCO2 062318Z 16016G21KT 38/15 A2991 RMK A01 T03830146  RH  025%=      5-min Rain = 0
KCO2 062319Z 14012KT 38/15 A2991 RMK A01 T03830148  RH  025%=      5-min Rain = 0
KCO2 062320Z 14013KT 38/15 A2991 RMK A01 T03840148  RH  025%=      5-min Rain = 0
KCO2 062321Z 14014KT 38/15 A2991 RMK A01 T03840147  RH  025%=      5-min Rain = 0
KCO2 062322Z 15015KT 38/15 A2991 RMK A01 T03820147  RH  025%=      5-min Rain = 0
KCO2 062323Z 16014KT 38/15 A2991 RMK A01 T03810147  RH  025%=      5-min Rain = 0
KCO2 062324Z 15010G18KT 38/15 A2991 RMK A01 T03820145  RH  025%=      5-min Rain = 0
KCO2 062325Z 16014KT 38/15 A2991 RMK A01 T03820145  RH  025%=      5-min Rain = 0
KCO2 062326Z 16016KT 38/15 A2991 RMK A01 T03840145  RH  024%=      5-min Rain = 0
KCO2 062327Z 16016KT 38/14 A2991 RMK A01 T03830142  RH  024%=      5-min Rain = 0
KCO2 062328Z 15010G15KT 38/14 A2991 RMK A01 T03820143  RH  024%=      5-min Rain = 0
KCO2 062329Z 14010KT 38/15 A2991 RMK A01 T03830145  RH  025%=      5-min Rain = 0
KCO2 062330Z 14015G20KT 38/14 A2991 RMK A01 T03830144  RH  024%=      5-min Rain = 0
KCO2 062331Z 14015KT 38/14 A2991 RMK A01 T03810144  RH  025%=      5-min Rain = 0
KCO2 062332Z 13015G20KT 38/15 A2991 RMK A01 T03800145  RH  025%=      5-min Rain = 0
KCO2 062333Z 14016KT 38/15 A2991 RMK A01 T03800146  RH  025%=      5-min Rain = 0
KCO2 062334Z 14016KT 38/15 A2991 RMK A01 T03800145  RH  025%=      5-min Rain = 0
KCO2 062335Z 14014KT 38/15 A2991 RMK A01 T03800145  RH  025%=      5-min Rain = 0
KCO2 062336Z 15015KT 38/15 A2991 RMK A01 T03800145  RH  025%=      5-min Rain = 0
KCO2 062337Z 15016G22KT 38/15 A2991 RMK A01 T03800146  RH  025%=      5-min Rain = 0
KCO2 062338Z 16017KT 38/14 A2991 RMK A01 T03790144  RH  025%=      5-min Rain = 0
KCO2 062339Z 14011KT 38/14 A2991 RMK A01 T03780144  RH  025%=      5-min Rain = 0
KCO2 062340Z 14010G16KT 38/15 A2991 RMK A01 T03780145  RH  025%=      5-min Rain = 0
KCO2 062341Z 14013KT 38/15 A2991 RMK A01 T03790145  RH  025%=      5-min Rain = 0
KCO2 062342Z 14015KT 38/14 A2991 RMK A01 T03790144  RH  025%=      5-min Rain = 0
KCO2 062343Z 14016KT 38/14 A2991 RMK A01 T03790144  RH  025%=      5-min Rain = 0
KCO2 062344Z 14015KT 38/14 A2991 RMK A01 T03790144  RH  025%=      5-min Rain = 0
KCO2 062345Z 14012KT 38/14 A2991 RMK A01 T03780143  RH  025%=      5-min Rain = 0
KCO2 062346Z 15014KT 38/14 A2991 RMK A01 T03770144  RH  025%=      5-min Rain = 0
KCO2 062347Z 14015KT 38/14 A2991 RMK A01 T03770144  RH  025%=      5-min Rain = 0
KCO2 062348Z 15015KT 38/14 A2991 RMK A01 T03750142  RH  025%=      5-min Rain = 0
KCO2 062349Z 15017G22KT 37/14 A2991 RMK A01 T03730141  RH  025%=      5-min Rain = 0
KCO2 062350Z 14017KT 37/14 A2991 RMK A01 T03710141  RH  026%=      5-min Rain = 0
KCO2 062351Z 14013KT 37/14 A2991 RMK A01 T03700142  RH  026%=      5-min Rain = 0
KCO2 062352Z 14014KT 37/14 A2991 RMK A01 T03700142  RH  026%=      5-min Rain = 0
KCO2 062353Z 14013G18KT 37/14 A2991 RMK A01 T03690142  RH  026%=      5-min Rain = 0
KCO2 062354Z 15015KT 37/14 A2991 RMK A01 T03690142  RH  026%=      5-min Rain = 0
KCO2 062355Z 15014KT 37/14 A2991 RMK A01 T03690142  RH  026%=      5-min Rain = 0
KCO2 062356Z 14013KT 37/14 A2991 RMK A01 T03680142  RH  026%=      5-min Rain = 0
KCO2 062357Z 16012KT 37/14 A2991 RMK A01 T03680142  RH  026%=      5-min Rain = 0
KCO2 062358Z 15012KT 37/14 A2991 RMK A01 T03680142  RH  026%=      5-min Rain = 0
KCO2 062359Z 16012KT 37/14 A2991 RMK A01 T03670141  RH  026%=      5-min Rain = 0
KCO2 070000Z 16011KT 37/14 A2991 RMK A01 T03670140  RH  026%=      5-min Rain = 0
KCO2 070001Z 15010KT 37/14 A2991 RMK A01 T03670140  RH  026%=      5-min Rain = 0
KCO2 070002Z 14013KT 37/14 A2991 RMK A01 T03670140  RH  026%=      5-min Rain = 0
KCO2 070003Z 13012KT 37/14 A2991 RMK A01 T03660140  RH  026%=      5-min Rain = 0
KCO2 070004Z 14014G19KT 37/14 A2991 RMK A01 T03650139  RH  026%=      5-min Rain = 0
KCO2 070005Z 14013KT 37/14 A2991 RMK A01 T03650139  RH  026%=      5-min Rain = 0
KCO2 070006Z 14016G22KT 36/14 A2991 RMK A01 T03640138  RH  026%=      5-min Rain = 0
KCO2 070007Z 14015G20KT 36/14 A2991 RMK A01 T03640139  RH  026%=      5-min Rain = 0
KCO2 070008Z 15014G19KT 36/14 A2991 RMK A01 T03630139  RH  026%=      5-min Rain = 0
KCO2 070009Z 15014KT 36/14 A2991 RMK A01 T03630139  RH  026%=      5-min Rain = 0
KCO2 070010Z 15013KT 36/14 A2991 RMK A01 T03630140  RH  026%=      5-min Rain = 0
KCO2 070011Z 15014KT 36/14 A2991 RMK A01 T03630140  RH  026%=      5-min Rain = 0
KCO2 070012Z 15015KT 36/14 A2991 RMK A01 T03630140  RH  026%=      5-min Rain = 0
KCO2 070013Z 15014G19KT 36/14 A2991 RMK A01 T03630140  RH  026%=      5-min Rain = 0
KCO2 070014Z 15016KT 36/14 A2991 RMK A01 T03630140  RH  026%=      5-min Rain = 0
KCO2 070015Z 15016KT 36/14 A2991 RMK A01 T03620139  RH  026%=      5-min Rain = 0
KCO2 070016Z 15015KT 36/14 A2991 RMK A01 T03630139  RH  026%=      5-min Rain = 0
KCO2 070017Z 15014KT 36/14 A2991 RMK A01 T03620139  RH  026%=      5-min Rain = 0
KCO2 070018Z 15014KT 36/14 A2991 RMK A01 T03630140  RH  026%=      5-min Rain = 0
KCO2 070019Z 14013KT 36/14 A2991 RMK A01 T03620140  RH  027%=      5-min Rain = 0
KCO2 070020Z 15013KT 36/14 A2991 RMK A01 T03620141  RH  027%=      5-min Rain = 0
KCO2 070021Z 14012KT 36/14 A2991 RMK A01 T03620141  RH  027%=      5-min Rain = 0
KCO2 070022Z 14013KT 36/14 A2991 RMK A01 T03610140  RH  027%=      5-min Rain = 0
KCO2 070023Z 14015KT 36/14 A2991 RMK A01 T03610140  RH  027%=      5-min Rain = 0
KCO2 070024Z 15013KT 36/14 A2991 RMK A01 T03600139  RH  027%=      5-min Rain = 0
KCO2 070025Z 14012KT 36/14 A2991 RMK A01 T03600140  RH  027%=      5-min Rain = 0
KCO2 070026Z 14011KT 36/14 A2991 RMK A01 T03600140  RH  027%=      5-min Rain = 0
KCO2 070027Z 14011KT 36/14 A2991 RMK A01 T03600140  RH  027%=      5-min Rain = 0
KCO2 070028Z 15011KT 36/14 A2991 RMK A01 T03590140  RH  027%=      5-min Rain = 0
KCO2 070029Z 14012G17KT 36/14 A2991 RMK A01 T03590140  RH  027%=      5-min Rain = 0
KCO2 070030Z 15012G17KT 36/14 A2991 RMK A01 T03590140  RH  027%=      5-min Rain = 0
KCO2 070031Z 15013KT 36/14 A2991 RMK A01 T03590140  RH  027%=      5-min Rain = 0
KCO2 070032Z 14013KT 36/14 A2991 RMK A01 T03590141  RH  027%=      5-min Rain = 0
KCO2 070033Z 15009KT 36/14 A2991 RMK A01 T03590141  RH  027%=      5-min Rain = 0
KCO2 070034Z 15009KT 36/14 A2991 RMK A01 T03580142  RH  027%=      5-min Rain = 0
KCO2 070035Z 15011KT 36/14 A2991 RMK A01 T03580143  RH  028%=      5-min Rain = 0
KCO2 070036Z 15012KT 36/14 A2991 RMK A01 T03580143  RH  028%=      5-min Rain = 0
KCO2 070037Z 14011KT 36/14 A2991 RMK A01 T03570143  RH  028%=      5-min Rain = 0
KCO2 070038Z 15010KT 36/14 A2991 RMK A01 T03570142  RH  028%=      5-min Rain = 0
KCO2 070039Z 16013KT 36/14 A2991 RMK A01 T03570142  RH  028%=      5-min Rain = 0
KCO2 070040Z 15012KT 36/14 A2991 RMK A01 T03570141  RH  028%=      5-min Rain = 0
KCO2 070041Z 15013KT 36/14 A2991 RMK A01 T03570142  RH  028%=      5-min Rain = 0
KCO2 070042Z 15013KT 36/14 A2991 RMK A01 T03570141  RH  027%=      5-min Rain = 0
KCO2 070043Z 15013KT 36/14 A2991 RMK A01 T03570141  RH  027%=      5-min Rain = 0
KCO2 070044Z 15013KT 36/14 A2991 RMK A01 T03570141  RH  027%=      5-min Rain = 0
KCO2 070045Z 15011KT 36/14 A2991 RMK A01 T03570142  RH  028%=      5-min Rain = 0
KCO2 070046Z 14010KT 36/14 A2991 RMK A01 T03570143  RH  028%=      5-min Rain = 0
KCO2 070047Z 15011KT 36/14 A2991 RMK A01 T03560143  RH  028%=      5-min Rain = 0
KCO2 070048Z 15010KT 36/14 A2991 RMK A01 T03560143  RH  028%=      5-min Rain = 0
KCO2 070049Z 14009KT 36/14 A2991 RMK A01 T03550143  RH  028%=      5-min Rain = 0
KCO2 070050Z 15009KT 36/14 A2991 RMK A01 T03550143  RH  028%=      5-min Rain = 0
KCO2 070051Z 15008KT 35/14 A2992 RMK A01 T03540143  RH  028%=      5-min Rain = 0
KCO2 070052Z 15009KT 35/14 A2992 RMK A01 T03540143  RH  028%=      5-min Rain = 0
KCO2 070053Z 15010KT 35/14 A2992 RMK A01 T03530143  RH  028%=      5-min Rain = 0
KCO2 070054Z 15009KT 35/14 A2992 RMK A01 T03530143  RH  028%=      5-min Rain = 0
KCO2 070055Z 16009KT 35/14 A2992 RMK A01 T03530143  RH  028%=      5-min Rain = 0
KCO2 070056Z 15009KT 35/14 A2992 RMK A01 T03520142  RH  028%=      5-min Rain = 0
KCO2 070057Z 15012KT 35/14 A2992 RMK A01 T03520142  RH  028%=      5-min Rain = 0
KCO2 070058Z 15013KT 35/14 A2992 RMK A01 T03530139  RH  028%=      5-min Rain = 0
KCO2 070059Z 15013KT 35/14 A2992 RMK A01 T03530139  RH  028%=      5-min Rain = 0
KCO2 070100Z 16015KT 35/14 A2992 RMK A01 T03530138  RH  028%=      5-min Rain = 0
KCO2 070101Z 16013KT 35/14 A2992 RMK A01 T03540138  RH  027%=      5-min Rain = 0
KCO2 070102Z 15010KT 35/14 A2992 RMK A01 T03540138  RH  027%=      5-min Rain = 0
KCO2 070103Z 15013G18KT 35/14 A2992 RMK A01 T03540139  RH  028%=      5-min Rain = 0
KCO2 070104Z 15012KT 35/14 A2992 RMK A01 T03530138  RH  028%=      5-min Rain = 0
KCO2 070105Z 16010KT 35/14 A2992 RMK A01 T03530139  RH  028%=      5-min Rain = 0
KCO2 070106Z 16011KT 35/14 A2992 RMK A01 T03530139  RH  028%=      5-min Rain = 0
KCO2 070107Z 16011KT 35/14 A2992 RMK A01 T03530139  RH  028%=      5-min Rain = 0
KCO2 070108Z 16010KT 35/14 A2992 RMK A01 T03530139  RH  028%=      5-min Rain = 0
KCO2 070109Z 15010KT 35/14 A2992 RMK A01 T03520139  RH  028%=      5-min Rain = 0
KCO2 070110Z 16011KT 35/14 A2992 RMK A01 T03520139  RH  028%=      5-min Rain = 0
KCO2 070111Z 15012KT 35/14 A2992 RMK A01 T03520139  RH  028%=      5-min Rain = 0
KCO2 070112Z 15010KT 35/14 A2992 RMK A01 T03510139  RH  028%=      5-min Rain = 0
KCO2 070113Z 16010KT 35/14 A2992 RMK A01 T03510139  RH  028%=      5-min Rain = 0
KCO2 070114Z 15010KT 35/14 A2992 RMK A01 T03500139  RH  028%=      5-min Rain = 0
KCO2 070115Z 16010KT 35/14 A2992 RMK A01 T03500139  RH  028%=      5-min Rain = 0
KCO2 070116Z 15009KT 35/14 A2993 RMK A01 T03500139  RH  028%=      5-min Rain = 0
KCO2 070117Z 15009KT 35/14 A2993 RMK A01 T03490138  RH  028%=      5-min Rain = 0
KCO2 070118Z 16010KT 35/14 A2993 RMK A01 T03490138  RH  028%=      5-min Rain = 0
KCO2 070119Z 16011KT 35/14 A2993 RMK A01 T03490137  RH  028%=      5-min Rain = 0
KCO2 070120Z 16009KT 35/14 A2993 RMK A01 T03490137  RH  028%=      5-min Rain = 0
KCO2 070121Z 15009KT 35/14 A2993 RMK A01 T03480137  RH  028%=      5-min Rain = 0
KCO2 070122Z 15011KT 35/14 A2993 RMK A01 T03480137  RH  028%=      5-min Rain = 0
KCO2 070123Z 16010KT 35/14 A2993 RMK A01 T03480137  RH  028%=      5-min Rain = 0
KCO2 070124Z 15008KT 35/14 A2993 RMK A01 T03480137  RH  028%=      5-min Rain = 0
KCO2 070125Z 16007KT 35/14 A2993 RMK A01 T03470138  RH  029%=      5-min Rain = 0
KCO2 070126Z 16007KT 35/14 A2993 RMK A01 T03460138  RH  029%=      5-min Rain = 0
KCO2 070127Z 15009KT 35/14 A2993 RMK A01 T03450138  RH  029%=      5-min Rain = 0
KCO2 070128Z 15010KT 34/14 A2993 RMK A01 T03440138  RH  029%=      5-min Rain = 0
KCO2 070129Z 15009KT 34/14 A2993 RMK A01 T03440137  RH  029%=      5-min Rain = 0
KCO2 070130Z 15009KT 35/14 A2993 RMK A01 T03450137  RH  029%=      5-min Rain = 0
KCO2 070131Z 15009KT 35/14 A2993 RMK A01 T03450138  RH  029%=      5-min Rain = 0
KCO2 070132Z 16009KT 34/14 A2993 RMK A01 T03440138  RH  029%=      5-min Rain = 0
KCO2 070133Z 15011KT 34/14 A2993 RMK A01 T03440138  RH  029%=      5-min Rain = 0
KCO2 070134Z 16010KT 34/14 A2994 RMK A01 T03440137  RH  029%=      5-min Rain = 0
KCO2 070135Z 16008KT 34/14 A2994 RMK A01 T03440137  RH  029%=      5-min Rain = 0
KCO2 070136Z 16012KT 34/14 A2994 RMK A01 T03440137  RH  029%=      5-min Rain = 0
KCO2 070137Z 16011KT 34/14 A2994 RMK A01 T03440136  RH  029%=      5-min Rain = 0
KCO2 070138Z 16010KT 34/14 A2994 RMK A01 T03440136  RH  029%=      5-min Rain = 0
KCO2 070139Z 16010KT 34/14 A2994 RMK A01 T03440136  RH  029%=      5-min Rain = 0
KCO2 070140Z 16009KT 34/14 A2994 RMK A01 T03440136  RH  029%=      5-min Rain = 0
KCO2 070141Z 15010KT 34/14 A2993 RMK A01 T03430136  RH  029%=      5-min Rain = 0
KCO2 070142Z 15009KT 34/14 A2993 RMK A01 T03430136  RH  029%=      5-min Rain = 0
KCO2 070143Z 15012KT 34/14 A2993 RMK A01 T03420136  RH  029%=      5-min Rain = 0
KCO2 070144Z 16010KT 34/14 A2993 RMK A01 T03420136  RH  029%=      5-min Rain = 0
KCO2 070145Z 16010KT 34/14 A2993 RMK A01 T03420136  RH  029%=      5-min Rain = 0
KCO2 070146Z 16011KT 34/14 A2993 RMK A01 T03420136  RH  029%=      5-min Rain = 0
KCO2 070147Z 15009KT 34/14 A2994 RMK A01 T03420136  RH  029%=      5-min Rain = 0
KCO2 070148Z 16009KT 34/14 A2994 RMK A01 T03410136  RH  029%=      5-min Rain = 0
KCO2 070149Z 15010KT 34/14 A2994 RMK A01 T03410136  RH  029%=      5-min Rain = 0
KCO2 070150Z 16009KT 34/14 A2994 RMK A01 T03400136  RH  029%=      5-min Rain = 0
KCO2 070151Z 16009KT 34/14 A2994 RMK A01 T03400136  RH  029%=      5-min Rain = 0
KCO2 070152Z 15008KT 34/14 A2994 RMK A01 T03400136  RH  029%=      5-min Rain = 0
KCO2 070153Z 16009KT 34/14 A2994 RMK A01 T03390136  RH  029%=      5-min Rain = 0
KCO2 070154Z 16010KT 34/14 A2994 RMK A01 T03390136  RH  030%=      5-min Rain = 0
KCO2 070155Z 16010KT 34/14 A2994 RMK A01 T03390136  RH  029%=      5-min Rain = 0
KCO2 070156Z 15010KT 34/14 A2994 RMK A01 T03390136  RH  029%=      5-min Rain = 0
KCO2 070157Z 16009KT 34/14 A2994 RMK A01 T03390136  RH  029%=      5-min Rain = 0
KCO2 070158Z 15009KT 34/14 A2994 RMK A01 T03390137  RH  030%=      5-min Rain = 0
KCO2 070159Z 15007KT 34/14 A2994 RMK A01 T03380137  RH  030%=      5-min Rain = 0
KCO2 070200Z 15008KT 34/14 A2994 RMK A01 T03380138  RH  030%=      5-min Rain = 0
KCO2 070201Z 15008KT 34/14 A2994 RMK A01 T03370137  RH  030%=      5-min Rain = 0
KCO2 070202Z 16007KT 34/14 A2994 RMK A01 T03360138  RH  030%=      5-min Rain = 0
KCO2 070203Z 15008KT 34/14 A2994 RMK A01 T03360138  RH  030%=      5-min Rain = 0
KCO2 070204Z 16007KT 34/14 A2994 RMK A01 T03350138  RH  030%=      5-min Rain = 0
KCO2 070205Z 16009KT 34/14 A2994 RMK A01 T03350137  RH  030%=      5-min Rain = 0
KCO2 070206Z 15008KT 33/14 A2994 RMK A01 T03340137  RH  030%=      5-min Rain = 0
KCO2 070207Z 15008KT 33/14 A2994 RMK A01 T03340138  RH  031%=      5-min Rain = 0
KCO2 070208Z 16007KT 33/14 A2994 RMK A01 T03340138  RH  031%=      5-min Rain = 0
KCO2 070209Z 16007KT 33/14 A2994 RMK A01 T03330137  RH  031%=      5-min Rain = 0
KCO2 070210Z 16007KT 33/14 A2994 RMK A01 T03320138  RH  031%=      5-min Rain = 0
KCO2 070211Z 16007KT 33/14 A2994 RMK A01 T03320138  RH  031%=      5-min Rain = 0
KCO2 070212Z 16007KT 33/14 A2994 RMK A01 T03320138  RH  031%=      5-min Rain = 0
KCO2 070213Z 16008KT 33/14 A2994 RMK A01 T03310137  RH  031%=      5-min Rain = 0
KCO2 070214Z 15007KT 33/14 A2994 RMK A01 T03310137  RH  031%=      5-min Rain = 0
KCO2 070215Z 15008KT 33/14 A2994 RMK A01 T03300137  RH  031%=      5-min Rain = 0
KCO2 070216Z 16009KT 33/14 A2994 RMK A01 T03300137  RH  031%=      5-min Rain = 0
KCO2 070217Z 15009KT 33/14 A2994 RMK A01 T03310136  RH  031%=      5-min Rain = 0
KCO2 070218Z 15009KT 33/14 A2994 RMK A01 T03310137  RH  031%=      5-min Rain = 0
KCO2 070219Z 15008KT 33/14 A2994 RMK A01 T03310137  RH  031%=      5-min Rain = 0
KCO2 070220Z 16008KT 33/14 A2994 RMK A01 T03310137  RH  031%=      5-min Rain = 0
KCO2 070221Z 16008KT 33/14 A2994 RMK A01 T03310137  RH  031%=      5-min Rain = 0
KCO2 070222Z 15007KT 33/14 A2995 RMK A01 T03300137  RH  031%=      5-min Rain = 0
KCO2 070223Z 16008KT 33/14 A2995 RMK A01 T03300137  RH  031%=      5-min Rain = 0
KCO2 070224Z 16008KT 33/14 A2995 RMK A01 T03290136  RH  031%=      5-min Rain = 0
KCO2 070225Z 16008KT 33/14 A2995 RMK A01 T03290136  RH  031%=      5-min Rain = 0
KCO2 070226Z 16008KT 33/14 A2995 RMK A01 T03290136  RH  031%=      5-min Rain = 0
KCO2 070227Z 15008KT 33/14 A2995 RMK A01 T03280136  RH  031%=      5-min Rain = 0
KCO2 070228Z 16008KT 33/14 A2995 RMK A01 T03290136  RH  031%=      5-min Rain = 0
KCO2 070229Z 15007KT 33/14 A2995 RMK A01 T03280136  RH  031%=      5-min Rain = 0
KCO2 070230Z 16009KT 33/14 A2995 RMK A01 T03280136  RH  031%=      5-min Rain = 0
KCO2 070231Z 16008KT 33/14 A2995 RMK A01 T03280136  RH  031%=      5-min Rain = 0
KCO2 070232Z 16008KT 33/14 A2995 RMK A01 T03270136  RH  031%=      5-min Rain = 0
KCO2 070233Z 16007KT 33/14 A2995 RMK A01 T03270136  RH  031%=      5-min Rain = 0
KCO2 070234Z 16009KT 33/14 A2995 RMK A01 T03270136  RH  031%=      5-min Rain = 0
KCO2 070235Z 16007KT 33/14 A2995 RMK A01 T03270136  RH  031%=      5-min Rain = 0
KCO2 070236Z 16008KT 33/14 A2995 RMK A01 T03260136  RH  032%=      5-min Rain = 0
KCO2 070237Z 16008KT 33/14 A2995 RMK A01 T03260136  RH  032%=      5-min Rain = 0
KCO2 070238Z 16007KT 33/14 A2995 RMK A01 T03260136  RH  032%=      5-min Rain = 0
KCO2 070239Z 16008KT 33/14 A2995 RMK A01 T03250136  RH  032%=      5-min Rain = 0
KCO2 070240Z 16007KT 33/14 A2995 RMK A01 T03250136  RH  032%=      5-min Rain = 0
KCO2 070241Z 16008KT 33/14 A2995 RMK A01 T03250135  RH  032%=      5-min Rain = 0
KCO2 070242Z 16007KT 32/14 A2995 RMK A01 T03240135  RH  032%=      5-min Rain = 0
KCO2 070243Z 16007KT 32/14 A2995 RMK A01 T03240135  RH  032%=      5-min Rain = 0
KCO2 070244Z 16008KT 32/14 A2995 RMK A01 T03230135  RH  032%=      5-min Rain = 0
KCO2 070245Z 16009KT 32/13 A2995 RMK A01 T03240134  RH  032%=      5-min Rain = 0
KCO2 070246Z 15009KT 32/13 A2995 RMK A01 T03230134  RH  032%=      5-min Rain = 0
KCO2 070247Z 16009KT 32/13 A2995 RMK A01 T03230134  RH  032%=      5-min Rain = 0
KCO2 070248Z 16009KT 32/13 A2995 RMK A01 T03240134  RH  032%=      5-min Rain = 0
KCO2 070249Z 16009KT 32/13 A2995 RMK A01 T03230133  RH  032%=      5-min Rain = 0
KCO2 070250Z 16009KT 32/13 A2995 RMK A01 T03240133  RH  031%=      5-min Rain = 0
KCO2 070251Z 16007KT 32/13 A2995 RMK A01 T03240133  RH  031%=      5-min Rain = 0
KCO2 070252Z 16008KT 32/13 A2995 RMK A01 T03240133  RH  031%=      5-min Rain = 0
KCO2 070253Z 16008KT 33/13 A2995 RMK A01 T03250133  RH  031%=      5-min Rain = 0
KCO2 070254Z 16009KT 32/13 A2995 RMK A01 T03240133  RH  031%=      5-min Rain = 0
KCO2 070255Z 16008KT 32/13 A2995 RMK A01 T03240132  RH  031%=      5-min Rain = 0
KCO2 070256Z 16008KT 33/13 A2995 RMK A01 T03250132  RH  031%=      5-min Rain = 0
KCO2 070257Z 16008KT 33/13 A2995 RMK A01 T03250132  RH  031%=      5-min Rain = 0
KCO2 070258Z 16007KT 33/13 A2996 RMK A01 T03250132  RH  031%=      5-min Rain = 0
KCO2 070259Z 16009KT 32/13 A2996 RMK A01 T03240132  RH  031%=      5-min Rain = 0
KCO2 070300Z 17008KT 32/13 A2996 RMK A01 T03240132  RH  031%=      5-min Rain = 0
KCO2 070301Z 16009KT 32/13 A2996 RMK A01 T03240132  RH  031%=      5-min Rain = 0
KCO2 070302Z 16008KT 32/13 A2996 RMK A01 T03240132  RH  031%=      5-min Rain = 0
KCO2 070303Z 17009KT 32/13 A2996 RMK A01 T03240131  RH  031%=      5-min Rain = 0
KCO2 070304Z 17008KT 32/13 A2996 RMK A01 T03240131  RH  031%=      5-min Rain = 0
KCO2 070305Z 17008KT 32/13 A2996 RMK A01 T03240131  RH  031%=      5-min Rain = 0
KCO2 070306Z 17007KT 32/13 A2996 RMK A01 T03230131  RH  031%=      5-min Rain = 0
KCO2 070307Z 17008KT 32/13 A2996 RMK A01 T03230131  RH  031%=      5-min Rain = 0
KCO2 070308Z 16009KT 32/13 A2996 RMK A01 T03230131  RH  031%=      5-min Rain = 0
KCO2 070309Z 17008KT 32/13 A2996 RMK A01 T03230130  RH  031%=      5-min Rain = 0
KCO2 070310Z 17008KT 32/13 A2996 RMK A01 T03230130  RH  031%=      5-min Rain = 0
KCO2 070311Z 17010KT 32/13 A2996 RMK A01 T03230130  RH  031%=      5-min Rain = 0
KCO2 070312Z 17008KT 32/13 A2996 RMK A01 T03240130  RH  031%=      5-min Rain = 0
KCO2 070313Z 17008KT 33/13 A2996 RMK A01 T03250130  RH  031%=      5-min Rain = 0
KCO2 070314Z 17009KT 32/13 A2996 RMK A01 T03240130  RH  031%=      5-min Rain = 0
KCO2 070315Z 17009KT 32/13 A2996 RMK A01 T03240130  RH  031%=      5-min Rain = 0
KCO2 070316Z 17008KT 33/13 A2997 RMK A01 T03250130  RH  031%=      5-min Rain = 0
KCO2 070317Z 17009KT 33/13 A2997 RMK A01 T03250130  RH  031%=      5-min Rain = 0
KCO2 070318Z 17009KT 32/13 A2997 RMK A01 T03240130  RH  031%=      5-min Rain = 0
KCO2 070319Z 17010KT 32/13 A2997 RMK A01 T03240130  RH  031%=      5-min Rain = 0
KCO2 070320Z 17008KT 32/13 A2997 RMK A01 T03240130  RH  031%=      5-min Rain = 0
KCO2 070321Z 17008KT 32/13 A2997 RMK A01 T03240130  RH  031%=      5-min Rain = 0
KCO2 070322Z 17009KT 32/13 A2997 RMK A01 T03240130  RH  031%=      5-min Rain = 0
KCO2 070323Z 17008KT 32/13 A2997 RMK A01 T03240130  RH  031%=      5-min Rain = 0
KCO2 070324Z 17007KT 32/13 A2997 RMK A01 T03230131  RH  031%=      5-min Rain = 0
KCO2 070325Z 17010KT 32/13 A2997 RMK A01 T03230130  RH  031%=      5-min Rain = 0
KCO2 070326Z 17010KT 32/13 A2997 RMK A01 T03220130  RH  031%=      5-min Rain = 0
KCO2 070327Z 17010KT 32/13 A2997 RMK A01 T03230130  RH  031%=      5-min Rain = 0
KCO2 070328Z 17007KT 32/13 A2997 RMK A01 T03230130  RH  031%=      5-min Rain = 0
KCO2 070329Z 17008KT 32/13 A2997 RMK A01 T03230131  RH  031%=      5-min Rain = 0
KCO2 070330Z 17009KT 32/13 A2997 RMK A01 T03220130  RH  031%=      5-min Rain = 0
KCO2 070331Z 17009KT 32/13 A2997 RMK A01 T03220130  RH  031%=      5-min Rain = 0
KCO2 070332Z 17007KT 32/13 A2997 RMK A01 T03220131  RH  031%=      5-min Rain = 0
KCO2 070333Z 17008KT 32/13 A2997 RMK A01 T03220131  RH  031%=      5-min Rain = 0
KCO2 070334Z 17008KT 32/13 A2997 RMK A01 T03210131  RH  031%=      5-min Rain = 0
KCO2 070335Z 17007KT 32/13 A2997 RMK A01 T03210131  RH  031%=      5-min Rain = 0
KCO2 070336Z 17007KT 32/13 A2997 RMK A01 T03210131  RH  032%=      5-min Rain = 0
KCO2 070337Z 17010KT 32/13 A2997 RMK A01 T03200131  RH  032%=      5-min Rain = 0
KCO2 070338Z 17009KT 32/13 A2997 RMK A01 T03200131  RH  032%=      5-min Rain = 0
KCO2 070339Z 18009KT 32/13 A2997 RMK A01 T03200130  RH  032%=      5-min Rain = 0
KCO2 070340Z 17009KT 32/13 A2997 RMK A01 T03200131  RH  032%=      5-min Rain = 0
KCO2 070341Z 17009KT 32/13 A2997 RMK A01 T03200130  RH  032%=      5-min Rain = 0
KCO2 070342Z 17008KT 32/13 A2997 RMK A01 T03200131  RH  032%=      5-min Rain = 0
KCO2 070343Z 17007KT 32/13 A2998 RMK A01 T03200131  RH  032%=      5-min Rain = 0
KCO2 070344Z 17009KT 32/13 A2998 RMK A01 T03190131  RH  032%=      5-min Rain = 0
KCO2 070345Z 17010KT 32/13 A2998 RMK A01 T03190131  RH  032%=      5-min Rain = 0
KCO2 070346Z 17009KT 32/13 A2998 RMK A01 T03190131  RH  032%=      5-min Rain = 0
KCO2 070347Z 17008KT 32/13 A2998 RMK A01 T03190131  RH  032%=      5-min Rain = 0
KCO2 070348Z 17009KT 32/13 A2998 RMK A01 T03190131  RH  032%=      5-min Rain = 0
KCO2 070349Z 17008KT 32/13 A2998 RMK A01 T03190131  RH  032%=      5-min Rain = 0
KCO2 070350Z 17010KT 32/13 A2998 RMK A01 T03190131  RH  032%=      5-min Rain = 0
KCO2 070351Z 18010KT 32/13 A2998 RMK A01 T03190131  RH  032%=      5-min Rain = 0
KCO2 070352Z 18010KT 32/13 A2998 RMK A01 T03200131  RH  032%=      5-min Rain = 0
KCO2 070353Z 18009KT 32/13 A2998 RMK A01 T03190131  RH  032%=      5-min Rain = 0
KCO2 070354Z 17008KT 32/13 A2998 RMK A01 T03190131  RH  032%=      5-min Rain = 0
KCO2 070355Z 17009KT 32/13 A2998 RMK A01 T03190131  RH  032%=      5-min Rain = 0
KCO2 070356Z 17009KT 32/13 A2998 RMK A01 T03190131  RH  032%=      5-min Rain = 0
KCO2 070357Z 17009KT 32/13 A2998 RMK A01 T03180131  RH  032%=      5-min Rain = 0
KCO2 070358Z 18008KT 32/13 A2998 RMK A01 T03180131  RH  032%=      5-min Rain = 0
KCO2 070359Z 18008KT 32/13 A2998 RMK A01 T03170131  RH  032%=      5-min Rain = 0
KCO2 070400Z 17008KT 32/13 A2998 RMK A01 T03170131  RH  032%=      5-min Rain = 0
KCO2 070401Z 17008KT 32/13 A2998 RMK A01 T03170131  RH  032%=      5-min Rain = 0
KCO2 070402Z 17010KT 32/13 A2998 RMK A01 T03160132  RH  032%=      5-min Rain = 0
KCO2 070403Z 17008KT 32/13 A2998 RMK A01 T03160131  RH  032%=      5-min Rain = 0
KCO2 070404Z 17010KT 32/13 A2998 RMK A01 T03160131  RH  032%=      5-min Rain = 0
KCO2 070405Z 17009KT 32/13 A2998 RMK A01 T03160131  RH  032%=      5-min Rain = 0
KCO2 070406Z 17009KT 32/13 A2998 RMK A01 T03160131  RH  032%=      5-min Rain = 0
KCO2 070407Z 17009KT 32/13 A2998 RMK A01 T03160131  RH  032%=      5-min Rain = 0
KCO2 070408Z 18010KT 32/13 A2998 RMK A01 T03160131  RH  032%=      5-min Rain = 0
KCO2 070409Z 18009KT 32/13 A2998 RMK A01 T03160131  RH  032%=      5-min Rain = 0
KCO2 070410Z 18008KT 32/13 A2998 RMK A01 T03160131  RH  032%=      5-min Rain = 0
KCO2 070411Z 17010KT 32/13 A2998 RMK A01 T03160131  RH  032%=      5-min Rain = 0
KCO2 070412Z 18009KT 32/13 A2998 RMK A01 T03160131  RH  032%=      5-min Rain = 0
KCO2 070413Z 18008KT 32/13 A2998 RMK A01 T03160131  RH  032%=      5-min Rain = 0
KCO2 070414Z 18008KT 32/13 A2998 RMK A01 T03160131  RH  033%=      5-min Rain = 0
KCO2 070415Z 18009KT 32/13 A2998 RMK A01 T03150131  RH  033%=      5-min Rain = 0
KCO2 070416Z 18008KT 32/13 A2998 RMK A01 T03150132  RH  033%=      5-min Rain = 0
KCO2 070417Z 18009KT 32/13 A2998 RMK A01 T03150131  RH  033%=      5-min Rain = 0
KCO2 070418Z 18008KT 31/13 A2998 RMK A01 T03140132  RH  033%=      5-min Rain = 0
KCO2 070419Z 18007KT 31/13 A2998 RMK A01 T03140132  RH  033%=      5-min Rain = 0
KCO2 070420Z 18008KT 31/13 A2998 RMK A01 T03140132  RH  033%=      5-min Rain = 0
KCO2 070421Z 18008KT 31/13 A2998 RMK A01 T03130132  RH  033%=      5-min Rain = 0
KCO2 070422Z 18009KT 31/13 A2998 RMK A01 T03130132  RH  033%=      5-min Rain = 0
KCO2 070423Z 19009KT 31/13 A2998 RMK A01 T03130132  RH  033%=      5-min Rain = 0
KCO2 070424Z 18008KT 31/13 A2998 RMK A01 T03130132  RH  033%=      5-min Rain = 0
KCO2 070425Z 18008KT 31/13 A2998 RMK A01 T03120132  RH  033%=      5-min Rain = 0
KCO2 070426Z 18008KT 31/13 A2998 RMK A01 T03120132  RH  033%=      5-min Rain = 0
KCO2 070427Z 18007KT 31/13 A2998 RMK A01 T03120132  RH  033%=      5-min Rain = 0
KCO2 070428Z 19008KT 31/13 A2998 RMK A01 T03120133  RH  033%=      5-min Rain = 0
KCO2 070429Z 19008KT 31/13 A2998 RMK A01 T03120133  RH  034%=      5-min Rain = 0
KCO2 070430Z 19009KT 31/13 A2998 RMK A01 T03120133  RH  034%=      5-min Rain = 0
KCO2 070431Z 19008KT 31/13 A2998 RMK A01 T03120133  RH  034%=      5-min Rain = 0
KCO2 070432Z 19008KT 31/13 A2998 RMK A01 T03120133  RH  034%=      5-min Rain = 0
KCO2 070433Z 19009KT 31/13 A2998 RMK A01 T03120134  RH  034%=      5-min Rain = 0
KCO2 070434Z 19009KT 31/13 A2999 RMK A01 T03120133  RH  034%=      5-min Rain = 0
KCO2 070435Z 19008KT 31/13 A2999 RMK A01 T03120134  RH  034%=      5-min Rain = 0
KCO2 070436Z 19008KT 31/14 A2999 RMK A01 T03130135  RH  034%=      5-min Rain = 0
KCO2 070437Z 19007KT 31/14 A2999 RMK A01 T03120135  RH  034%=      5-min Rain = 0
KCO2 070438Z 19008KT 31/14 A2999 RMK A01 T03120135  RH  034%=      5-min Rain = 0
KCO2 070439Z 19008KT 31/14 A2999 RMK A01 T03120135  RH  034%=      5-min Rain = 0
KCO2 070440Z 19008KT 31/14 A2999 RMK A01 T03120135  RH  034%=      5-min Rain = 0
KCO2 070441Z 19008KT 31/14 A2999 RMK A01 T03110136  RH  034%=      5-min Rain = 0
KCO2 070442Z 19008KT 31/14 A2999 RMK A01 T03110136  RH  034%=      5-min Rain = 0
KCO2 070443Z 19009KT 31/14 A2999 RMK A01 T03110136  RH  034%=      5-min Rain = 0
KCO2 070444Z 18008KT 31/14 A2999 RMK A01 T03100136  RH  035%=      5-min Rain = 0
KCO2 070445Z 18009KT 31/14 A2999 RMK A01 T03100137  RH  035%=      5-min Rain = 0
KCO2 070446Z 18008KT 31/14 A2999 RMK A01 T03100137  RH  035%=      5-min Rain = 0
KCO2 070447Z 18008KT 31/14 A2999 RMK A01 T03100137  RH  035%=      5-min Rain = 0
KCO2 070448Z 18009KT 31/14 A2998 RMK A01 T03090137  RH  035%=      5-min Rain = 0
KCO2 070449Z 18009KT 31/14 A2998 RMK A01 T03090137  RH  035%=      5-min Rain = 0
KCO2 070450Z 18008KT 31/14 A2998 RMK A01 T03090138  RH  035%=      5-min Rain = 0
KCO2 070451Z 18008KT 31/14 A2998 RMK A01 T03090138  RH  035%=      5-min Rain = 0
KCO2 070452Z 18007KT 31/14 A2998 RMK A01 T03080138  RH  035%=      5-min Rain = 0
KCO2 070453Z 17008KT 31/14 A2998 RMK A01 T03070138  RH  036%=      5-min Rain = 0
KCO2 070454Z 18009KT 31/14 A2998 RMK A01 T03070138  RH  036%=      5-min Rain = 0
KCO2 070455Z 18008KT 31/14 A2998 RMK A01 T03070139  RH  036%=      5-min Rain = 0
KCO2 070456Z 18008KT 31/14 A2998 RMK A01 T03070139  RH  036%=      5-min Rain = 0
KCO2 070457Z 17007KT 31/14 A2998 RMK A01 T03060139  RH  036%=      5-min Rain = 0
KCO2 070458Z 18008KT 31/14 A2998 RMK A01 T03070139  RH  036%=      5-min Rain = 0
KCO2 070459Z 17008KT 31/14 A2998 RMK A01 T03060139  RH  036%=      5-min Rain = 0

Page generated in 0.0658 seconds.